Wetterdaten: Samstag, 07.12.2013
Datum Zeit Temp. Aussen +5cm Feuchte Auss Luftdruck Regen Sonnenschein Regendauer UV Solar Windben
07.12.2013 00:00 2,1 C 1,1 C 91 % 1025,2 hPa 0,0 l/m 0 min 0 min 0,0 UV-I 0 W/m 5,1 km/h (1 Bft)
07.12.2013 00:02 2,1 C 1,1 C 91 % 1025,2 hPa 0,0 l/m 0 min 0 min 0,0 UV-I 0 W/m 5,1 km/h (1 Bft)
07.12.2013 00:06 2,1 C 1,1 C 91 % 1025,2 hPa 0,0 l/m 0 min 0 min 0,0 UV-I 0 W/m 5,1 km/h (1 Bft)
07.12.2013 00:08 2,1 C 1,1 C 91 % 1025,2 hPa 0,0 l/m 0 min 0 min 0,0 UV-I 0 W/m 7,7 km/h (2 Bft)
07.12.2013 00:10 2,1 C 1,1 C 91 % 1025,2 hPa 0,0 l/m 0 min 0 min 0,0 UV-I 0 W/m 10,3 km/h (2 Bft)
07.12.2013 00:12 2,1 C 1,1 C 91 % 1025,2 hPa 0,0 l/m 0 min 0 min 0,0 UV-I 0 W/m 15,4 km/h (3 Bft)
07.12.2013 00:14 2,1 C 1,1 C 92 % 1025,2 hPa 0,0 l/m 0 min 0 min 0,0 UV-I 0 W/m 2,6 km/h (1 Bft)
07.12.2013 00:16 2,1 C 1,1 C 92 % 1025,2 hPa 0,0 l/m 0 min 0 min 0,0 UV-I 0 W/m 7,7 km/h (2 Bft)
07.12.2013 00:18 2,1 C 1,1 C 91 % 1025,2 hPa 0,0 l/m 0 min 0 min 0,0 UV-I 0 W/m 7,7 km/h (2 Bft)
07.12.2013 00:20 2,1 C 1,1 C 91 % 1025,3 hPa 0,0 l/m 0 min 0 min 0,0 UV-I 0 W/m 2,6 km/h (1 Bft)
07.12.2013 00:22 2,2 C 1,1 C 91 % 1025,3 hPa 0,0 l/m 0 min 0 min 0,0 UV-I 0 W/m 7,7 km/h (2 Bft)
07.12.2013 00:24 2,2 C 1,1 C 91 % 1025,3 hPa 0,0 l/m 0 min 0 min 0,0 UV-I 0 W/m 10,3 km/h (2 Bft)
07.12.2013 00:26 2,2 C 1,1 C 92 % 1025,3 hPa 0,0 l/m 0 min 0 min 0,0 UV-I 0 W/m 7,7 km/h (2 Bft)
07.12.2013 00:28 2,2 C 1,1 C 92 % 1025,3 hPa 0,0 l/m 0 min 0 min 0,0 UV-I 0 W/m 12,9 km/h (3 Bft)
07.12.2013 00:30 2,2 C 1,1 C 92 % 1025,3 hPa 0,0 l/m 0 min 0 min 0,0 UV-I 0 W/m 7,7 km/h (2 Bft)
07.12.2013 00:32 2,2 C 1,1 C 92 % 1025,3 hPa 0,0 l/m 0 min 0 min 0,0 UV-I 0 W/m 7,7 km/h (2 Bft)
07.12.2013 00:34 2,2 C 1,1 C 92 % 1025,3 hPa 0,0 l/m 0 min 0 min 0,0 UV-I 0 W/m 10,3 km/h (2 Bft)
07.12.2013 00:36 2,1 C 1,1 C 92 % 1025,3 hPa 0,0 l/m 0 min 0 min 0,0 UV-I 0 W/m 7,7 km/h (2 Bft)
07.12.2013 00:38 2,1 C 1,1 C 92 % 1025,3 hPa 0,0 l/m 0 min 0 min 0,0 UV-I 0 W/m 15,4 km/h (3 Bft)
07.12.2013 00:40 2,1 C 1,1 C 92 % 1025,3 hPa 0,0 l/m 0 min 0 min 0,0 UV-I 0 W/m 10,3 km/h (2 Bft)
07.12.2013 00:42 2,1 C 1,1 C 92 % 1025,3 hPa 0,0 l/m 0 min 0 min 0,0 UV-I 0 W/m 10,3 km/h (2 Bft)
07.12.2013 00:44 2,1 C 1,1 C 91 % 1025,3 hPa 0,0 l/m 0 min 0 min 0,0 UV-I 0 W/m 5,1 km/h (1 Bft)
07.12.2013 00:46 2,1 C 1,1 C 91 % 1025,3 hPa 0,0 l/m 0 min 0 min 0,0 UV-I 0 W/m 12,9 km/h (3 Bft)
07.12.2013 00:48 2,1 C 1,1 C 91 % 1025,3 hPa 0,0 l/m 0 min 0 min 0,0 UV-I 0 W/m 15,4 km/h (3 Bft)
07.12.2013 00:50 2,0 C 1,1 C 91 % 1025,3 hPa 0,0 l/m 0 min 0 min 0,0 UV-I 0 W/m 12,9 km/h (3 Bft)
07.12.2013 00:52 2,0 C 1,1 C 91 % 1025,3 hPa 0,0 l/m 0 min 0 min 0,0 UV-I 0 W/m 5,1 km/h (1 Bft)
07.12.2013 00:54 2,0 C 1,1 C 91 % 1025,2 hPa 0,0 l/m 0 min 0 min 0,0 UV-I 0 W/m 7,7 km/h (2 Bft)
07.12.2013 00:56 2,0 C 1,1 C 91 % 1025,2 hPa 0,0 l/m 0 min 0 min 0,0 UV-I 0 W/m 12,9 km/h (3 Bft)
07.12.2013 00:58 2,0 C 1,1 C 91 % 1025,2 hPa 0,0 l/m 0 min 0 min 0,0 UV-I 0 W/m 10,3 km/h (2 Bft)
07.12.2013 01:00 2,0 C 1,1 C 91 % 1025,2 hPa 0,0 l/m 0 min 0 min 0,0 UV-I 0 W/m 7,7 km/h (2 Bft)
07.12.2013 01:02 2,0 C 1,1 C 91 % 1025,2 hPa 0,0 l/m 0 min 0 min 0,0 UV-I 0 W/m 10,3 km/h (2 Bft)
07.12.2013 01:04 2,0 C 1,1 C 91 % 1025,2 hPa 0,0 l/m 0 min 0 min 0,0 UV-I 0 W/m 0,0 km/h (0 Bft)
07.12.2013 01:06 2,0 C 1,1 C 91 % 1025,2 hPa 0,0 l/m 0 min 0 min 0,0 UV-I 0 W/m 7,7 km/h (2 Bft)
07.12.2013 01:08 2,0 C 1,1 C 91 % 1025,3 hPa 0,0 l/m 0 min 0 min 0,0 UV-I 0 W/m 0,0 km/h (0 Bft)
07.12.2013 01:10 2,0 C 1,1 C 91 % 1025,3 hPa 0,0 l/m 0 min 0 min 0,0 UV-I 0 W/m 0,0 km/h (0 Bft)
07.12.2013 01:12 2,0 C 1,1 C 91 % 1025,3 hPa 0,0 l/m 0 min 0 min 0,0 UV-I 0 W/m 0,0 km/h (0 Bft)
07.12.2013 01:14 2,0 C 1,1 C 91 % 1025,3 hPa 0,0 l/m 0 min 0 min 0,0 UV-I 0 W/m 10,3 km/h (2 Bft)
07.12.2013 01:16 2,0 C 1,1 C 91 % 1025,2 hPa 0,0 l/m 0 min 0 min 0,0 UV-I 0 W/m 2,6 km/h (1 Bft)
07.12.2013 01:18 2,0 C 0,6 C 91 % 1025,3 hPa 0,0 l/m 0 min 0 min 0,0 UV-I 0 W/m 7,7 km/h (2 Bft)
07.12.2013 01:20 2,0 C 0,6 C 91 % 1025,3 hPa 0,0 l/m 0 min 0 min 0,0 UV-I 0 W/m 0,0 km/h (0 Bft)
07.12.2013 01:22 2,0 C 0,6 C 91 % 1025,2 hPa 0,0 l/m 0 min 0 min 0,0 UV-I 0 W/m 0,0 km/h (0 Bft)
07.12.2013 01:24 2,0 C 1,1 C 90 % 1025,2 hPa 0,0 l/m 0 min 0 min 0,0 UV-I 0 W/m 7,7 km/h (2 Bft)
07.12.2013 01:26 2,0 C 1,1 C 90 % 1025,2 hPa 0,0 l/m 0 min 0 min 0,0 UV-I 0 W/m 0,0 km/h (0 Bft)
07.12.2013 01:28 2,0 C 1,1 C 90 % 1025,2 hPa 0,0 l/m 0 min 0 min 0,0 UV-I 0 W/m 7,7 km/h (2 Bft)
07.12.2013 01:30 2,0 C 1,1 C 90 % 1025,2 hPa 0,0 l/m 0 min 0 min 0,0 UV-I 0 W/m 12,9 km/h (3 Bft)
07.12.2013 01:32 2,0 C 1,1 C 90 % 1025,2 hPa 0,0 l/m 0 min 0 min 0,0 UV-I 0 W/m 0,0 km/h (0 Bft)
07.12.2013 01:34 1,9 C 1,1 C 90 % 1025,2 hPa 0,0 l/m 0 min 0 min 0,0 UV-I 0 W/m 10,3 km/h (2 Bft)
07.12.2013 01:36 2,0 C 1,1 C 90 % 1025,1 hPa 0,0 l/m 0 min 0 min 0,0 UV-I 0 W/m 5,1 km/h (1 Bft)
07.12.2013 01:38 1,9 C 0,6 C 90 % 1025,1 hPa 0,0 l/m 0 min 0 min 0,0 UV-I 0 W/m 2,6 km/h (1 Bft)
07.12.2013 01:40 2,0 C 0,6 C 90 % 1025,1 hPa 0,0 l/m 0 min 0 min 0,0 UV-I 0 W/m 7,7 km/h (2 Bft)
07.12.2013 01:42 1,9 C 0,6 C 90 % 1025,1 hPa 0,0 l/m 0 min 0 min 0,0 UV-I 0 W/m 2,6 km/h (1 Bft)
07.12.2013 01:44 1,9 C 0,6 C 90 % 1025,1 hPa 0,0 l/m 0 min 0 min 0,0 UV-I 0 W/m 7,7 km/h (2 Bft)
07.12.2013 01:46 1,9 C 0,6 C 90 % 1025,1 hPa 0,0 l/m 0 min 0 min 0,0 UV-I 0 W/m 0,0 km/h (0 Bft)
07.12.2013 01:48 1,9 C 0,6 C 90 % 1025,1 hPa 0,0 l/m 0 min 0 min 0,0 UV-I 0 W/m 7,7 km/h (2 Bft)
07.12.2013 01:50 1,9 C 0,6 C 90 % 1025,1 hPa 0,0 l/m 0 min 0 min 0,0 UV-I 0 W/m 7,7 km/h (2 Bft)
07.12.2013 01:52 1,9 C 0,6 C 90 % 1025,1 hPa 0,0 l/m 0 min 0 min 0,0 UV-I 0 W/m 5,1 km/h (1 Bft)
07.12.2013 01:54 1,9 C 0,6 C 90 % 1025,1 hPa 0,0 l/m 0 min 0 min 0,0 UV-I 0 W/m 12,9 km/h (3 Bft)
07.12.2013 01:56 1,9 C 0,6 C 90 % 1025,1 hPa 0,0 l/m 0 min 0 min 0,0 UV-I 0 W/m 7,7 km/h (2 Bft)
07.12.2013 01:58 1,9 C 0,6 C 90 % 1025,1 hPa 0,0 l/m 0 min 0 min 0,0 UV-I 0 W/m 7,7 km/h (2 Bft)
07.12.2013 02:00 1,9 C 0,6 C 90 % 1025,2 hPa 0,0 l/m 0 min 0 min 0,0 UV-I 0 W/m 0,0 km/h (0 Bft)
07.12.2013 02:02 1,9 C 0,6 C 90 % 1025,2 hPa 0,0 l/m 0 min 0 min 0,0 UV-I 0 W/m 5,1 km/h (1 Bft)
07.12.2013 02:04 1,9 C 0,6 C 90 % 1025,2 hPa 0,0 l/m 0 min 0 min 0,0 UV-I 0 W/m 10,3 km/h (2 Bft)
07.12.2013 02:06 1,9 C 0,6 C 90 % 1025,2 hPa 0,0 l/m 0 min 0 min 0,0 UV-I 0 W/m 0,0 km/h (0 Bft)
07.12.2013 02:08 1,9 C 0,6 C 90 % 1025,2 hPa 0,0 l/m 0 min 0 min 0,0 UV-I 0 W/m 2,6 km/h (1 Bft)
07.12.2013 02:10 1,9 C 0,6 C 90 % 1025,2 hPa 0,0 l/m 0 min 0 min 0,0 UV-I 0 W/m 0,0 km/h (0 Bft)
07.12.2013 02:12 1,9 C 0,6 C 90 % 1025,2 hPa 0,0 l/m 0 min 0 min 0,0 UV-I 0 W/m 2,6 km/h (1 Bft)
07.12.2013 02:14 1,9 C 0,6 C 90 % 1025,2 hPa 0,0 l/m 0 min 0 min 0,0 UV-I 0 W/m 2,6 km/h (1 Bft)
07.12.2013 02:16 1,9 C 0,6 C 90 % 1025,2 hPa 0,0 l/m 0 min 0 min 0,0 UV-I 0 W/m 10,3 km/h (2 Bft)
07.12.2013 02:18 1,9 C 0,6 C 90 % 1025,2 hPa 0,0 l/m 0 min 0 min 0,0 UV-I 0 W/m 0,0 km/h (0 Bft)
07.12.2013 02:20 1,9 C 0,6 C 90 % 1025,1 hPa 0,0 l/m 0 min 0 min 0,0 UV-I 0 W/m 0,0 km/h (0 Bft)
07.12.2013 02:22 1,9 C 0,6 C 90 % 1025,2 hPa 0,0 l/m 0 min 0 min 0,0 UV-I 0 W/m 0,0 km/h (0 Bft)
07.12.2013 02:24 1,9 C 0,6 C 90 % 1025,2 hPa 0,0 l/m 0 min 0 min 0,0 UV-I 0 W/m 5,1 km/h (1 Bft)
07.12.2013 02:26 1,9 C 0,6 C 90 % 1025,3 hPa 0,0 l/m 0 min 0 min 0,0 UV-I 0 W/m 0,0 km/h (0 Bft)
07.12.2013 02:28 1,9 C 0,6 C 90 % 1025,3 hPa 0,0 l/m 0 min 0 min 0,0 UV-I 0 W/m 0,0 km/h (0 Bft)
07.12.2013 02:30 1,9 C 0,6 C 90 % 1025,3 hPa 0,0 l/m 0 min 0 min 0,0 UV-I 0 W/m 0,0 km/h (0 Bft)
07.12.2013 02:32 1,9 C 0,6 C 90 % 1025,3 hPa 0,0 l/m 0 min 0 min 0,0 UV-I 0 W/m 12,9 km/h (3 Bft)
07.12.2013 02:34 1,9 C 0,6 C 90 % 1025,4 hPa 0,0 l/m 0 min 0 min 0,0 UV-I 0 W/m 5,1 km/h (1 Bft)
07.12.2013 02:36 1,9 C 0,6 C 90 % 1025,4 hPa 0,0 l/m 0 min 0 min 0,0 UV-I 0 W/m 5,1 km/h (1 Bft)
07.12.2013 02:38 1,9 C 0,6 C 90 % 1025,5 hPa 0,0 l/m 0 min 0 min 0,0 UV-I 0 W/m 2,6 km/h (1 Bft)
07.12.2013 02:40 1,9 C 0,6 C 90 % 1025,5 hPa 0,0 l/m 0 min 0 min 0,0 UV-I 0 W/m 7,7 km/h (2 Bft)
07.12.2013 02:42 1,9 C 0,6 C 90 % 1025,5 hPa 0,0 l/m 0 min 0 min 0,0 UV-I 0 W/m 0,0 km/h (0 Bft)
07.12.2013 02:44 1,9 C 0,6 C 90 % 1025,6 hPa 0,0 l/m 0 min 0 min 0,0 UV-I 0 W/m 0,0 km/h (0 Bft)
07.12.2013 02:46 1,9 C 0,6 C 90 % 1025,6 hPa 0,0 l/m 0 min 0 min 0,0 UV-I 0 W/m 0,0 km/h (0 Bft)
07.12.2013 02:48 1,9 C 0,6 C 90 % 1025,6 hPa 0,0 l/m 0 min 0 min 0,0 UV-I 0 W/m 7,7 km/h (2 Bft)
07.12.2013 02:50 1,9 C 0,6 C 90 % 1025,5 hPa 0,0 l/m 0 min 0 min 0,0 UV-I 0 W/m 5,1 km/h (1 Bft)
07.12.2013 02:52 1,9 C 0,6 C 90 % 1025,5 hPa 0,0 l/m 0 min 0 min 0,0 UV-I 0 W/m 7,7 km/h (2 Bft)
07.12.2013 02:54 1,9 C 0,6 C 90 % 1025,5 hPa 0,0 l/m 0 min 0 min 0,0 UV-I 0 W/m 10,3 km/h (2 Bft)
07.12.2013 02:56 1,9 C 0,6 C 90 % 1025,5 hPa 0,0 l/m 0 min 0 min 0,0 UV-I 0 W/m 10,3 km/h (2 Bft)
07.12.2013 02:58 1,9 C 0,6 C 90 % 1025,6 hPa 0,0 l/m 0 min 0 min 0,0 UV-I 0 W/m 7,7 km/h (2 Bft)
07.12.2013 03:00 1,9 C 0,6 C 90 % 1025,6 hPa 0,0 l/m 0 min 0 min 0,0 UV-I 0 W/m 10,3 km/h (2 Bft)
07.12.2013 03:02 1,9 C 0,6 C 90 % 1025,6 hPa 0,0 l/m 0 min 0 min 0,0 UV-I 0 W/m 7,7 km/h (2 Bft)
07.12.2013 03:04 1,9 C 0,6 C 90 % 1025,6 hPa 0,0 l/m 0 min 0 min 0,0 UV-I 0 W/m 0,0 km/h (0 Bft)
07.12.2013 03:06 1,9 C 0,6 C 90 % 1025,6 hPa 0,0 l/m 0 min 0 min 0,0 UV-I 0 W/m 2,6 km/h (1 Bft)
07.12.2013 03:08 1,9 C 0,6 C 90 % 1025,6 hPa 0,0 l/m 0 min 0 min 0,0 UV-I 0 W/m 2,6 km/h (1 Bft)
07.12.2013 03:10 1,9 C 0,6 C 90 % 1025,6 hPa 0,0 l/m 0 min 0 min 0,0 UV-I 0 W/m 5,1 km/h (1 Bft)
07.12.2013 03:12 1,9 C 0,6 C 90 % 1025,7 hPa 0,0 l/m 0 min 0 min 0,0 UV-I 0 W/m 7,7 km/h (2 Bft)
07.12.2013 03:14 1,9 C 0,6 C 90 % 1025,7 hPa 0,0 l/m 0 min 0 min 0,0 UV-I 0 W/m 10,3 km/h (2 Bft)
07.12.2013 03:16 1,9 C 0,6 C 90 % 1025,7 hPa 0,0 l/m 0 min 0 min 0,0 UV-I 0 W/m 7,7 km/h (2 Bft)
07.12.2013 03:18 1,9 C 0,6 C 90 % 1025,7 hPa 0,0 l/m 0 min 0 min 0,0 UV-I 0 W/m 7,7 km/h (2 Bft)
07.12.2013 03:20 1,9 C 0,6 C 91 % 1025,7 hPa 0,0 l/m 0 min 0 min 0,0 UV-I 0 W/m 0,0 km/h (0 Bft)
07.12.2013 03:22 2,0 C 1,1 C 91 % 1025,7 hPa 0,0 l/m 0 min 0 min 0,0 UV-I 0 W/m 12,9 km/h (3 Bft)
07.12.2013 03:24 2,0 C 1,1 C 91 % 1025,8 hPa 0,0 l/m 0 min 0 min 0,0 UV-I 0 W/m 12,9 km/h (3 Bft)
07.12.2013 03:26 2,0 C 1,1 C 91 % 1025,7 hPa 0,0 l/m 0 min 0 min 0,0 UV-I 0 W/m 5,1 km/h (1 Bft)
07.12.2013 03:28 2,1 C 1,1 C 91 % 1025,7 hPa 0,0 l/m 0 min 0 min 0,0 UV-I 0 W/m 10,3 km/h (2 Bft)
07.12.2013 03:30 2,1 C 1,1 C 91 % 1025,6 hPa 0,0 l/m 0 min 0 min 0,0 UV-I 0 W/m 0,0 km/h (0 Bft)
07.12.2013 03:32 2,1 C 1,1 C 91 % 1025,7 hPa 0,0 l/m 0 min 0 min 0,0 UV-I 0 W/m 5,1 km/h (1 Bft)
07.12.2013 03:34 2,1 C 1,1 C 91 % 1025,7 hPa 0,0 l/m 0 min 0 min 0,0 UV-I 0 W/m 0,0 km/h (0 Bft)
07.12.2013 03:36 2,1 C 1,1 C 91 % 1025,7 hPa 0,0 l/m 0 min 0 min 0,0 UV-I 0 W/m 2,6 km/h (1 Bft)
07.12.2013 03:38 2,1 C 1,1 C 91 % 1025,7 hPa 0,0 l/m 0 min 0 min 0,0 UV-I 0 W/m 2,6 km/h (1 Bft)
07.12.2013 03:40 2,1 C 1,1 C 91 % 1025,7 hPa 0,0 l/m 0 min 0 min 0,0 UV-I 0 W/m 12,9 km/h (3 Bft)
07.12.2013 03:42 2,2 C 1,1 C 91 % 1025,7 hPa 0,0 l/m 0 min 0 min 0,0 UV-I 0 W/m 2,6 km/h (1 Bft)
07.12.2013 03:44 2,2 C 1,1 C 91 % 1025,7 hPa 0,0 l/m 0 min 0 min 0,0 UV-I 0 W/m 0,0 km/h (0 Bft)
07.12.2013 03:46 2,2 C 1,1 C 91 % 1025,7 hPa 0,0 l/m 0 min 0 min 0,0 UV-I 0 W/m 5,1 km/h (1 Bft)
07.12.2013 03:48 2,2 C 1,1 C 91 % 1025,6 hPa 0,0 l/m 0 min 0 min 0,0 UV-I 0 W/m 10,3 km/h (2 Bft)
07.12.2013 03:50 2,2 C 1,1 C 91 % 1025,6 hPa 0,0 l/m 0 min 0 min 0,0 UV-I 0 W/m 0,0 km/h (0 Bft)
07.12.2013 03:52 2,2 C 1,1 C 91 % 1025,6 hPa 0,0 l/m 0 min 0 min 0,0 UV-I 0 W/m 0,0 km/h (0 Bft)
07.12.2013 03:54 2,2 C 1,1 C 91 % 1025,7 hPa 0,0 l/m 0 min 0 min 0,0 UV-I 0 W/m 2,6 km/h (1 Bft)
07.12.2013 03:56 2,2 C 1,1 C 91 % 1025,6 hPa 0,0 l/m 0 min 0 min 0,0 UV-I 0 W/m 2,6 km/h (1 Bft)
07.12.2013 03:58 2,2 C 1,1 C 91 % 1025,6 hPa 0,0 l/m 0 min 0 min 0,0 UV-I 0 W/m 0,0 km/h (0 Bft)
07.12.2013 04:00 2,3 C 1,1 C 91 % 1025,6 hPa 0,0 l/m 0 min 0 min 0,0 UV-I 0 W/m 7,7 km/h (2 Bft)
07.12.2013 04:05 2,3 C 1,1 C 90 % 1025,5 hPa 0,2 l/m 0 min 0 min 0,0 UV-I 0 W/m 12,9 km/h (3 Bft)
07.12.2013 04:10 2,3 C 1,1 C 90 % 1025,5 hPa 0,0 l/m 0 min 0 min 0,0 UV-I 0 W/m 15,4 km/h (3 Bft)
07.12.2013 04:15 2,4 C 1,1 C 90 % 1025,5 hPa 0,0 l/m 0 min 0 min 0,0 UV-I 0 W/m 12,9 km/h (3 Bft)
07.12.2013 04:20 2,4 C 1,7 C 90 % 1025,5 hPa 0,0 l/m 0 min 0 min 0,0 UV-I 0 W/m 12,9 km/h (3 Bft)
07.12.2013 04:25 2,5 C 1,7 C 90 % 1025,6 hPa 0,0 l/m 0 min 0 min 0,0 UV-I 0 W/m 12,9 km/h (3 Bft)
07.12.2013 04:30 2,6 C 1,7 C 90 % 1025,6 hPa 0,0 l/m 0 min 0 min 0,0 UV-I 0 W/m 5,1 km/h (1 Bft)
07.12.2013 04:35 2,6 C 1,7 C 90 % 1025,6 hPa 0,0 l/m 0 min 0 min 0,0 UV-I 0 W/m 18,0 km/h (3 Bft)
07.12.2013 04:40 2,6 C 1,7 C 90 % 1025,6 hPa 0,0 l/m 0 min 0 min 0,0 UV-I 0 W/m 10,3 km/h (2 Bft)
07.12.2013 04:45 2,7 C 1,7 C 89 % 1025,6 hPa 0,0 l/m 0 min 0 min 0,0 UV-I 0 W/m 7,7 km/h (2 Bft)
07.12.2013 04:50 2,7 C 1,7 C 89 % 1025,7 hPa 0,0 l/m 0 min 0 min 0,0 UV-I 0 W/m 10,3 km/h (2 Bft)
07.12.2013 04:55 2,7 C 1,7 C 89 % 1025,6 hPa 0,0 l/m 0 min 0 min 0,0 UV-I 0 W/m 2,6 km/h (1 Bft)
07.12.2013 05:00 2,7 C 1,7 C 89 % 1025,7 hPa 0,0 l/m 0 min 0 min 0,0 UV-I 0 W/m 7,7 km/h (2 Bft)
07.12.2013 05:05 2,7 C 1,7 C 89 % 1025,7 hPa 0,0 l/m 0 min 0 min 0,0 UV-I 0 W/m 2,6 km/h (1 Bft)
07.12.2013 05:10 2,7 C 1,7 C 88 % 1025,7 hPa 0,0 l/m 0 min 0 min 0,0 UV-I 0 W/m 2,6 km/h (1 Bft)
07.12.2013 05:15 2,7 C 1,7 C 88 % 1025,6 hPa 0,0 l/m 0 min 0 min 0,0 UV-I 0 W/m 0,0 km/h (0 Bft)
07.12.2013 05:20 2,7 C 1,7 C 88 % 1025,6 hPa 0,0 l/m 0 min 0 min 0,0 UV-I 0 W/m 7,7 km/h (2 Bft)
07.12.2013 05:25 2,7 C 1,7 C 88 % 1025,6 hPa 0,0 l/m 0 min 0 min 0,0 UV-I 0 W/m 0,0 km/h (0 Bft)
07.12.2013 05:30 2,7 C 1,7 C 88 % 1025,7 hPa 0,0 l/m 0 min 0 min 0,0 UV-I 0 W/m 0,0 km/h (0 Bft)
07.12.2013 05:35 2,7 C 1,7 C 88 % 1025,6 hPa 0,0 l/m 0 min 0 min 0,0 UV-I 0 W/m 5,1 km/h (1 Bft)
07.12.2013 05:40 2,7 C 1,7 C 88 % 1025,7 hPa 0,0 l/m 0 min 0 min 0,0 UV-I 0 W/m 2,6 km/h (1 Bft)
07.12.2013 05:45 2,7 C 1,7 C 88 % 1025,8 hPa 0,0 l/m 0 min 0 min 0,0 UV-I 0 W/m 2,6 km/h (1 Bft)
07.12.2013 05:50 2,6 C 1,7 C 88 % 1025,7 hPa 0,0 l/m 0 min 0 min 0,0 UV-I 0 W/m 0,0 km/h (0 Bft)
07.12.2013 05:55 2,6 C 1,7 C 88 % 1025,7 hPa 0,0 l/m 0 min 0 min 0,0 UV-I 0 W/m 0,0 km/h (0 Bft)
07.12.2013 06:00 2,6 C 1,7 C 88 % 1025,6 hPa 0,0 l/m 0 min 0 min 0,0 UV-I 0 W/m 0,0 km/h (0 Bft)
07.12.2013 06:05 2,6 C 1,7 C 87 % 1025,7 hPa 0,0 l/m 0 min 0 min 0,0 UV-I 0 W/m 0,0 km/h (0 Bft)
07.12.2013 06:10 2,6 C 1,7 C 87 % 1025,7 hPa 0,0 l/m 0 min 0 min 0,0 UV-I 0 W/m 5,1 km/h (1 Bft)
07.12.2013 06:15 2,6 C 1,7 C 87 % 1025,8 hPa 0,0 l/m 0 min 0 min 0,0 UV-I 0 W/m 5,1 km/h (1 Bft)
07.12.2013 06:20 2,6 C 1,1 C 87 % 1025,8 hPa 0,0 l/m 0 min 0 min 0,0 UV-I 0 W/m 2,6 km/h (1 Bft)
07.12.2013 06:25 2,6 C 1,1 C 87 % 1025,8 hPa 0,0 l/m 0 min 0 min 0,0 UV-I 0 W/m 2,6 km/h (1 Bft)
07.12.2013 06:30 2,6 C 1,1 C 87 % 1025,9 hPa 0,0 l/m 0 min 0 min 0,0 UV-I 0 W/m 0,0 km/h (0 Bft)
07.12.2013 06:35 2,6 C 1,1 C 87 % 1025,8 hPa 0,0 l/m 0 min 0 min 0,0 UV-I 0 W/m 0,0 km/h (0 Bft)
07.12.2013 06:40 2,6 C 1,1 C 87 % 1025,8 hPa 0,0 l/m 0 min 0 min 0,0 UV-I 0 W/m 0,0 km/h (0 Bft)
07.12.2013 06:45 2,5 C 1,1 C 87 % 1025,7 hPa 0,0 l/m 0 min 0 min 0,0 UV-I 0 W/m 0,0 km/h (0 Bft)
07.12.2013 06:48 2,5 C 1,1 C 87 % 1025,7 hPa 0,0 l/m 0 min 0 min 0,0 UV-I 0 W/m 0,0 km/h (0 Bft)
07.12.2013 06:53 2,5 C 1,1 C 87 % 1025,7 hPa 0,0 l/m 0 min 0 min 0,0 UV-I 0 W/m 2,6 km/h (1 Bft)
07.12.2013 06:54 2,5 C 1,1 C 87 % 1025,7 hPa 0,0 l/m 0 min 0 min 0,0 UV-I 0 W/m 0,0 km/h (0 Bft)
07.12.2013 06:56 2,5 C 1,1 C 87 % 1025,7 hPa 0,0 l/m 0 min 0 min 0,0 UV-I 0 W/m 5,1 km/h (1 Bft)
07.12.2013 06:58 2,5 C 1,1 C 87 % 1025,6 hPa 0,0 l/m 0 min 0 min 0,0 UV-I 0 W/m 0,0 km/h (0 Bft)
07.12.2013 07:00 2,5 C 1,1 C 88 % 1025,7 hPa 0,0 l/m 0 min 0 min 0,0 UV-I 0 W/m 0,0 km/h (0 Bft)
07.12.2013 07:02 2,5 C 1,1 C 88 % 1025,7 hPa 0,0 l/m 0 min 0 min 0,0 UV-I 0 W/m 5,1 km/h (1 Bft)
07.12.2013 07:04 2,5 C 1,1 C 88 % 1025,8 hPa 0,0 l/m 0 min 0 min 0,0 UV-I 0 W/m 2,6 km/h (1 Bft)
07.12.2013 07:06 2,4 C 1,1 C 88 % 1025,7 hPa 0,0 l/m 0 min 0 min 0,0 UV-I 0 W/m 0,0 km/h (0 Bft)
07.12.2013 07:08 2,4 C 1,1 C 88 % 1025,6 hPa 0,0 l/m 0 min 0 min 0,0 UV-I 0 W/m 7,7 km/h (2 Bft)
07.12.2013 07:10 2,4 C 1,1 C 88 % 1025,6 hPa 0,0 l/m 0 min 0 min 0,0 UV-I 0 W/m 0,0 km/h (0 Bft)
07.12.2013 07:12 2,4 C 1,1 C 88 % 1025,5 hPa 0,0 l/m 0 min 0 min 0,0 UV-I 0 W/m 0,0 km/h (0 Bft)
07.12.2013 07:14 2,4 C 1,1 C 88 % 1025,5 hPa 0,0 l/m 0 min 0 min 0,0 UV-I 0 W/m 0,0 km/h (0 Bft)
07.12.2013 07:16 2,4 C 1,1 C 88 % 1025,5 hPa 0,0 l/m 0 min 0 min 0,0 UV-I 0 W/m 0,0 km/h (0 Bft)
07.12.2013 07:18 2,4 C 1,1 C 88 % 1025,6 hPa 0,0 l/m 0 min 0 min 0,0 UV-I 0 W/m 0,0 km/h (0 Bft)
07.12.2013 07:20 2,4 C 1,1 C 88 % 1025,5 hPa 0,0 l/m 0 min 0 min 0,0 UV-I 0 W/m 0,0 km/h (0 Bft)
07.12.2013 07:22 2,4 C 1,1 C 88 % 1025,5 hPa 0,0 l/m 0 min 0 min 0,0 UV-I 0 W/m 0,0 km/h (0 Bft)
07.12.2013 07:24 2,4 C 1,1 C 88 % 1025,5 hPa 0,0 l/m 0 min 0 min 0,0 UV-I 0 W/m 5,1 km/h (1 Bft)
07.12.2013 07:26 2,4 C 1,1 C 88 % 1025,5 hPa 0,0 l/m 0 min 0 min 0,0 UV-I 0 W/m 7,7 km/h (2 Bft)
07.12.2013 07:28 2,4 C 1,1 C 88 % 1025,4 hPa 0,0 l/m 0 min 0 min 0,0 UV-I 0 W/m 2,6 km/h (1 Bft)
07.12.2013 07:30 2,4 C 1,1 C 88 % 1025,5 hPa 0,0 l/m 0 min 0 min 0,0 UV-I 0 W/m 0,0 km/h (0 Bft)
07.12.2013 07:32 2,4 C 1,1 C 88 % 1025,4 hPa 0,0 l/m 0 min 0 min 0,0 UV-I 0 W/m 0,0 km/h (0 Bft)
07.12.2013 07:34 2,4 C 1,1 C 89 % 1025,5 hPa 0,0 l/m 0 min 0 min 0,0 UV-I 0 W/m 2,6 km/h (1 Bft)
07.12.2013 07:36 2,4 C 1,1 C 89 % 1025,5 hPa 0,0 l/m 0 min 0 min 0,0 UV-I 0 W/m 0,0 km/h (0 Bft)
07.12.2013 07:38 2,4 C 1,1 C 89 % 1025,5 hPa 0,0 l/m 0 min 0 min 0,0 UV-I 0 W/m 0,0 km/h (0 Bft)
07.12.2013 07:40 2,4 C 1,1 C 89 % 1025,4 hPa 0,0 l/m 0 min 0 min 0,0 UV-I 0 W/m 0,0 km/h (0 Bft)
07.12.2013 07:42 2,4 C 1,1 C 89 % 1025,4 hPa 0,0 l/m 0 min 0 min 0,0 UV-I 0 W/m 5,1 km/h (1 Bft)
07.12.2013 07:44 2,4 C 1,1 C 89 % 1025,4 hPa 0,0 l/m 0 min 0 min 0,0 UV-I 0 W/m 0,0 km/h (0 Bft)
07.12.2013 07:46 2,4 C 1,1 C 89 % 1025,5 hPa 0,0 l/m 0 min 0 min 0,0 UV-I 0 W/m 0,0 km/h (0 Bft)
07.12.2013 07:48 2,4 C 1,1 C 89 % 1025,5 hPa 0,0 l/m 0 min 0 min 0,0 UV-I 0 W/m 2,6 km/h (1 Bft)
07.12.2013 07:50 2,4 C 1,1 C 89 % 1025,5 hPa 0,0 l/m 0 min 0 min 0,0 UV-I 0 W/m 2,6 km/h (1 Bft)
07.12.2013 07:52 2,4 C 1,1 C 89 % 1025,5 hPa 0,0 l/m 0 min 0 min 0,0 UV-I 0 W/m 10,3 km/h (2 Bft)
07.12.2013 07:54 2,4 C 1,1 C 89 % 1025,5 hPa 0,0 l/m 0 min 0 min 0,0 UV-I 0 W/m 5,1 km/h (1 Bft)
07.12.2013 07:56 2,4 C 1,1 C 90 % 1025,5 hPa 0,0 l/m 0 min 0 min 0,0 UV-I 0 W/m 5,1 km/h (1 Bft)
07.12.2013 07:58 2,4 C 1,1 C 90 % 1025,6 hPa 0,0 l/m 0 min 0 min 0,0 UV-I 0 W/m 0,0 km/h (0 Bft)
07.12.2013 08:00 2,4 C 1,1 C 90 % 1025,6 hPa 0,0 l/m 0 min 0 min 0,0 UV-I 0 W/m 2,6 km/h (1 Bft)
07.12.2013 08:02 2,4 C 1,1 C 90 % 1025,7 hPa 0,0 l/m 0 min 0 min 0,0 UV-I 0 W/m 5,1 km/h (1 Bft)
07.12.2013 08:04 2,4 C 1,1 C 90 % 1025,7 hPa 0,0 l/m 0 min 0 min 0,0 UV-I 0 W/m 0,0 km/h (0 Bft)
07.12.2013 08:06 2,4 C 1,1 C 90 % 1025,6 hPa 0,0 l/m 0 min 0 min 0,0 UV-I 0 W/m 2,6 km/h (1 Bft)
07.12.2013 08:08 2,4 C 1,1 C 90 % 1025,6 hPa 0,0 l/m 0 min 0 min 0,0 UV-I 0 W/m 2,6 km/h (1 Bft)
07.12.2013 08:10 2,4 C 1,1 C 90 % 1025,6 hPa 0,0 l/m 0 min 0 min 0,0 UV-I 0 W/m 0,0 km/h (0 Bft)
07.12.2013 08:12 2,4 C 1,1 C 91 % 1025,7 hPa 0,0 l/m 0 min 0 min 0,0 UV-I 0 W/m 0,0 km/h (0 Bft)
07.12.2013 08:14 2,4 C 1,1 C 91 % 1025,7 hPa 0,0 l/m 0 min 0 min 0,0 UV-I 0 W/m 0,0 km/h (0 Bft)
07.12.2013 08:16 2,4 C 1,1 C 91 % 1025,7 hPa 0,0 l/m 0 min 0 min 0,0 UV-I 0 W/m 0,0 km/h (0 Bft)
07.12.2013 08:18 2,4 C 1,1 C 91 % 1025,7 hPa 0,0 l/m 0 min 0 min 0,0 UV-I 0 W/m 7,7 km/h (2 Bft)
07.12.2013 08:20 2,4 C 1,7 C 91 % 1025,8 hPa 0,0 l/m 0 min 0 min 0,0 UV-I 0 W/m 2,6 km/h (1 Bft)
07.12.2013 08:22 2,4 C 1,7 C 91 % 1025,7 hPa 0,0 l/m 0 min 0 min 0,0 UV-I 0 W/m 0,0 km/h (0 Bft)
07.12.2013 08:24 2,4 C 1,7 C 91 % 1025,7 hPa 0,0 l/m 0 min 0 min 0,0 UV-I 0 W/m 0,0 km/h (0 Bft)
07.12.2013 08:26 2,4 C 1,7 C 91 % 1025,8 hPa 0,0 l/m 0 min 0 min 0,0 UV-I 0 W/m 5,1 km/h (1 Bft)
07.12.2013 08:28 2,4 C 1,7 C 91 % 1025,8 hPa 0,0 l/m 0 min 0 min 0,0 UV-I 0 W/m 0,0 km/h (0 Bft)
07.12.2013 08:30 2,4 C 1,7 C 91 % 1025,9 hPa 0,0 l/m 0 min 0 min 0,0 UV-I 0 W/m 0,0 km/h (0 Bft)
07.12.2013 08:32 2,4 C 1,7 C 91 % 1025,9 hPa 0,0 l/m 0 min 0 min 0,0 UV-I 0 W/m 0,0 km/h (0 Bft)
07.12.2013 08:34 2,4 C 1,7 C 91 % 1025,9 hPa 0,0 l/m 0 min 0 min 0,0 UV-I 0 W/m 0,0 km/h (0 Bft)
07.12.2013 08:36 2,4 C 1,7 C 91 % 1025,9 hPa 0,0 l/m 0 min 2 min 0,0 UV-I 0 W/m 0,0 km/h (0 Bft)
07.12.2013 08:38 2,4 C 1,1 C 92 % 1025,9 hPa 0,0 l/m 0 min 2 min 0,0 UV-I 0 W/m 2,6 km/h (1 Bft)
07.12.2013 08:40 2,4 C 1,1 C 92 % 1025,9 hPa 0,0 l/m 0 min 0 min 0,0 UV-I 5 W/m 0,0 km/h (0 Bft)
07.12.2013 08:42 2,4 C 1,1 C 92 % 1025,8 hPa 0,0 l/m 0 min 0 min 0,0 UV-I 5 W/m 0,0 km/h (0 Bft)
07.12.2013 08:44 2,5 C 1,1 C 92 % 1025,8 hPa 0,0 l/m 0 min 0 min 0,0 UV-I 5 W/m 0,0 km/h (0 Bft)
07.12.2013 08:46 2,5 C 1,1 C 92 % 1025,8 hPa 0,0 l/m 0 min 0 min 0,0 UV-I 5 W/m 0,0 km/h (0 Bft)
07.12.2013 08:48 2,5 C 1,1 C 92 % 1025,8 hPa 0,0 l/m 0 min 0 min 0,0 UV-I 5 W/m 0,0 km/h (0 Bft)
07.12.2013 08:50 2,5 C 1,7 C 92 % 1025,8 hPa 0,0 l/m 0 min 0 min 0,0 UV-I 5 W/m 7,7 km/h (2 Bft)
07.12.2013 08:52 2,5 C 1,7 C 92 % 1025,8 hPa 0,0 l/m 0 min 0 min 0,0 UV-I 7 W/m 0,0 km/h (0 Bft)
07.12.2013 08:54 2,6 C 1,7 C 92 % 1025,9 hPa 0,0 l/m 0 min 0 min 0,0 UV-I 7 W/m 0,0 km/h (0 Bft)
07.12.2013 08:56 2,6 C 1,7 C 92 % 1026,0 hPa 0,0 l/m 0 min 0 min 0,0 UV-I 7 W/m 7,7 km/h (2 Bft)
07.12.2013 08:58 2,6 C 1,7 C 92 % 1025,9 hPa 0,0 l/m 0 min 2 min 0,0 UV-I 9 W/m 0,0 km/h (0 Bft)
07.12.2013 09:00 2,6 C 1,7 C 92 % 1025,9 hPa 0,0 l/m 0 min 0 min 0,0 UV-I 9 W/m 0,0 km/h (0 Bft)
07.12.2013 09:02 2,6 C 1,7 C 93 % 1025,9 hPa 0,0 l/m 0 min 2 min 0,0 UV-I 9 W/m 2,6 km/h (1 Bft)
07.12.2013 09:04 2,6 C 1,7 C 93 % 1025,9 hPa 0,0 l/m 0 min 2 min 0,0 UV-I 9 W/m 5,1 km/h (1 Bft)
07.12.2013 09:06 2,7 C 1,7 C 93 % 1025,9 hPa 0,0 l/m 0 min 2 min 0,0 UV-I 11 W/m 0,0 km/h (0 Bft)
07.12.2013 09:08 2,7 C 1,7 C 93 % 1025,9 hPa 0,0 l/m 0 min 2 min 0,0 UV-I 11 W/m 0,0 km/h (0 Bft)
07.12.2013 09:10 2,7 C 1,7 C 93 % 1025,9 hPa 0,0 l/m 0 min 2 min 0,0 UV-I 9 W/m 0,0 km/h (0 Bft)
07.12.2013 09:12 2,7 C 1,7 C 93 % 1026,0 hPa 0,0 l/m 0 min 2 min 0,0 UV-I 9 W/m 2,6 km/h (1 Bft)
07.12.2013 09:14 2,7 C 1,7 C 93 % 1025,9 hPa 0,0 l/m 0 min 0 min 0,0 UV-I 9 W/m 2,6 km/h (1 Bft)
07.12.2013 09:16 2,7 C 1,7 C 93 % 1025,9 hPa 0,0 l/m 0 min 2 min 0,0 UV-I 9 W/m 0,0 km/h (0 Bft)
07.12.2013 09:18 2,7 C 1,7 C 93 % 1025,9 hPa 0,0 l/m 0 min 0 min 0,0 UV-I 11 W/m 0,0 km/h (0 Bft)
07.12.2013 09:20 2,7 C 1,7 C 93 % 1025,9 hPa 0,0 l/m 0 min 2 min 0,0 UV-I 11 W/m 0,0 km/h (0 Bft)
07.12.2013 09:22 2,7 C 1,7 C 93 % 1025,9 hPa 0,0 l/m 0 min 2 min 0,0 UV-I 11 W/m 0,0 km/h (0 Bft)
07.12.2013 09:24 2,7 C 1,7 C 93 % 1026,0 hPa 0,0 l/m 0 min 2 min 0,0 UV-I 11 W/m 0,0 km/h (0 Bft)
07.12.2013 09:26 2,7 C 1,7 C 93 % 1025,9 hPa 0,0 l/m 0 min 2 min 0,0 UV-I 11 W/m 2,6 km/h (1 Bft)
07.12.2013 09:28 2,8 C 1,7 C 93 % 1025,9 hPa 0,0 l/m 0 min 0 min 0,0 UV-I 11 W/m 0,0 km/h (0 Bft)
07.12.2013 09:30 2,8 C 1,7 C 94 % 1025,8 hPa 0,0 l/m 0 min 2 min 0,0 UV-I 12 W/m 0,0 km/h (0 Bft)
07.12.2013 09:32 2,8 C 1,7 C 94 % 1025,8 hPa 0,0 l/m 0 min 2 min 0,0 UV-I 12 W/m 0,0 km/h (0 Bft)
07.12.2013 09:34 2,8 C 1,7 C 94 % 1025,8 hPa 0,0 l/m 0 min 2 min 0,0 UV-I 12 W/m 0,0 km/h (0 Bft)
07.12.2013 09:36 2,8 C 1,7 C 94 % 1025,8 hPa 0,0 l/m 0 min 0 min 0,0 UV-I 12 W/m 0,0 km/h (0 Bft)
07.12.2013 09:38 2,8 C 1,7 C 94 % 1025,8 hPa 0,0 l/m 0 min 2 min 0,0 UV-I 14 W/m 2,6 km/h (1 Bft)
07.12.2013 09:40 2,8 C 1,7 C 94 % 1025,8 hPa 0,0 l/m 0 min 0 min 0,0 UV-I 16 W/m 0,0 km/h (0 Bft)
07.12.2013 09:42 2,8 C 1,7 C 94 % 1025,8 hPa 0,0 l/m 0 min 0 min 0,0 UV-I 16 W/m 0,0 km/h (0 Bft)
07.12.2013 09:44 2,8 C 1,7 C 94 % 1025,8 hPa 0,0 l/m 0 min 2 min 0,0 UV-I 18 W/m 7,7 km/h (2 Bft)
07.12.2013 09:46 2,8 C 1,7 C 94 % 1025,7 hPa 0,0 l/m 0 min 2 min 0,0 UV-I 19 W/m 5,1 km/h (1 Bft)
07.12.2013 09:48 2,9 C 1,7 C 94 % 1025,7 hPa 0,0 l/m 0 min 2 min 0,0 UV-I 18 W/m 0,0 km/h (0 Bft)
07.12.2013 09:50 2,9 C 1,7 C 94 % 1025,7 hPa 0,0 l/m 0 min 0 min 0,0 UV-I 18 W/m 7,7 km/h (2 Bft)
07.12.2013 09:52 2,9 C 1,7 C 94 % 1025,7 hPa 0,0 l/m 0 min 0 min 0,0 UV-I 18 W/m 0,0 km/h (0 Bft)
07.12.2013 09:54 2,9 C 1,7 C 94 % 1025,7 hPa 0,0 l/m 0 min 0 min 0,0 UV-I 19 W/m 0,0 km/h (0 Bft)
07.12.2013 09:56 2,9 C 1,7 C 94 % 1025,7 hPa 0,0 l/m 0 min 0 min 0,0 UV-I 19 W/m 0,0 km/h (0 Bft)
07.12.2013 09:58 2,9 C 2,2 C 94 % 1025,7 hPa 0,0 l/m 0 min 0 min 0,0 UV-I 23 W/m 0,0 km/h (0 Bft)
07.12.2013 10:00 2,9 C 2,2 C 95 % 1025,7 hPa 0,0 l/m 0 min 0 min 0,0 UV-I 23 W/m 0,0 km/h (0 Bft)
07.12.2013 10:02 2,9 C 2,2 C 95 % 1025,6 hPa 0,0 l/m 0 min 0 min 0,0 UV-I 21 W/m 0,0 km/h (0 Bft)
07.12.2013 10:04 2,9 C 2,2 C 95 % 1025,7 hPa 0,0 l/m 0 min 0 min 0,0 UV-I 23 W/m 10,3 km/h (2 Bft)
07.12.2013 10:06 2,9 C 2,2 C 95 % 1025,7 hPa 0,0 l/m 0 min 0 min 0,0 UV-I 21 W/m 2,6 km/h (1 Bft)
07.12.2013 10:08 3,0 C 2,2 C 95 % 1025,6 hPa 0,0 l/m 0 min 0 min 0,0 UV-I 19 W/m 0,0 km/h (0 Bft)
07.12.2013 10:10 3,0 C 2,2 C 95 % 1025,7 hPa 0,0 l/m 0 min 0 min 0,0 UV-I 18 W/m 12,9 km/h (3 Bft)
07.12.2013 10:12 3,0 C 2,2 C 95 % 1025,6 hPa 0,0 l/m 0 min 0 min 0,0 UV-I 16 W/m 2,6 km/h (1 Bft)
07.12.2013 10:14 3,1 C 2,2 C 95 % 1025,6 hPa 0,0 l/m 0 min 0 min 0,0 UV-I 19 W/m 0,0 km/h (0 Bft)
07.12.2013 10:16 3,1 C 2,2 C 95 % 1025,6 hPa 0,0 l/m 0 min 0 min 0,0 UV-I 21 W/m 0,0 km/h (0 Bft)
07.12.2013 10:18 3,1 C 2,2 C 95 % 1025,5 hPa 0,0 l/m 0 min 0 min 0,0 UV-I 26 W/m 2,6 km/h (1 Bft)
07.12.2013 10:20 3,1 C 2,2 C 95 % 1025,5 hPa 0,0 l/m 0 min 0 min 0,0 UV-I 25 W/m 2,6 km/h (1 Bft)
07.12.2013 10:22 3,1 C 2,2 C 95 % 1025,5 hPa 0,0 l/m 0 min 0 min 0,0 UV-I 25 W/m 7,7 km/h (2 Bft)
07.12.2013 10:24 3,1 C 2,2 C 95 % 1025,5 hPa 0,0 l/m 0 min 0 min 0,0 UV-I 23 W/m 0,0 km/h (0 Bft)
07.12.2013 10:26 3,1 C 2,2 C 95 % 1025,5 hPa 0,0 l/m 0 min 0 min 0,0 UV-I 21 W/m 0,0 km/h (0 Bft)
07.12.2013 10:28 3,2 C 2,2 C 95 % 1025,4 hPa 0,0 l/m 0 min 0 min 0,0 UV-I 23 W/m 5,1 km/h (1 Bft)
07.12.2013 10:30 3,2 C 2,2 C 95 % 1025,4 hPa 0,0 l/m 0 min 0 min 0,0 UV-I 23 W/m 7,7 km/h (2 Bft)
07.12.2013 10:32 3,2 C 2,2 C 95 % 1025,4 hPa 0,0 l/m 0 min 2 min 0,0 UV-I 26 W/m 10,3 km/h (2 Bft)
07.12.2013 10:34 3,2 C 2,2 C 95 % 1025,4 hPa 0,0 l/m 0 min 0 min 0,0 UV-I 30 W/m 10,3 km/h (2 Bft)
07.12.2013 10:36 3,2 C 2,2 C 95 % 1025,3 hPa 0,0 l/m 0 min 0 min 0,0 UV-I 28 W/m 0,0 km/h (0 Bft)
07.12.2013 10:38 3,2 C 2,2 C 95 % 1025,4 hPa 0,0 l/m 0 min 0 min 0,0 UV-I 26 W/m 10,3 km/h (2 Bft)
07.12.2013 10:40 3,3 C 2,2 C 95 % 1025,4 hPa 0,0 l/m 0 min 0 min 0,0 UV-I 30 W/m 10,3 km/h (2 Bft)
07.12.2013 10:42 3,3 C 2,2 C 95 % 1025,4 hPa 0,0 l/m 0 min 0 min 0,0 UV-I 25 W/m 2,6 km/h (1 Bft)
07.12.2013 10:44 3,3 C 2,2 C 95 % 1025,3 hPa 0,0 l/m 0 min 0 min 0,0 UV-I 21 W/m 5,1 km/h (1 Bft)
07.12.2013 10:46 3,3 C 2,2 C 96 % 1025,3 hPa 0,0 l/m 0 min 0 min 0,0 UV-I 21 W/m 0,0 km/h (0 Bft)
07.12.2013 10:48 3,3 C 2,2 C 96 % 1025,3 hPa 0,0 l/m 0 min 0 min 0,0 UV-I 18 W/m 0,0 km/h (0 Bft)
07.12.2013 10:50 3,3 C 2,2 C 96 % 1025,4 hPa 0,0 l/m 0 min 0 min 0,0 UV-I 16 W/m 0,0 km/h (0 Bft)
07.12.2013 10:52 3,3 C 2,2 C 96 % 1025,4 hPa 0,2 l/m 0 min 0 min 0,0 UV-I 16 W/m 0,0 km/h (0 Bft)
07.12.2013 10:54 3,4 C 2,2 C 96 % 1025,4 hPa 0,0 l/m 0 min 0 min 0,0 UV-I 14 W/m 0,0 km/h (0 Bft)
07.12.2013 10:56 3,4 C 2,2 C 96 % 1025,3 hPa 0,0 l/m 0 min 0 min 0,0 UV-I 14 W/m 0,0 km/h (0 Bft)
07.12.2013 10:58 3,4 C 2,2 C 96 % 1025,2 hPa 0,0 l/m 0 min 0 min 0,0 UV-I 14 W/m 0,0 km/h (0 Bft)
07.12.2013 11:00 3,4 C 2,2 C 96 % 1025,3 hPa 0,0 l/m 0 min 0 min 0,0 UV-I 16 W/m 0,0 km/h (0 Bft)
07.12.2013 11:02 3,4 C 2,2 C 96 % 1025,3 hPa 0,0 l/m 0 min 0 min 0,0 UV-I 16 W/m 7,7 km/h (2 Bft)
07.12.2013 11:04 3,4 C 2,2 C 96 % 1025,2 hPa 0,0 l/m 0 min 0 min 0,0 UV-I 16 W/m 0,0 km/h (0 Bft)
07.12.2013 11:06 3,4 C 2,2 C 96 % 1025,3 hPa 0,0 l/m 0 min 0 min 0,0 UV-I 18 W/m 7,7 km/h (2 Bft)
07.12.2013 11:08 3,4 C 2,2 C 96 % 1025,2 hPa 0,0 l/m 0 min 0 min 0,0 UV-I 19 W/m 0,0 km/h (0 Bft)
07.12.2013 11:10 3,4 C 2,2 C 96 % 1025,2 hPa 0,0 l/m 0 min 0 min 0,0 UV-I 19 W/m 0,0 km/h (0 Bft)
07.12.2013 11:12 3,4 C 2,2 C 96 % 1025,2 hPa 0,0 l/m 0 min 2 min 0,0 UV-I 16 W/m 7,7 km/h (2 Bft)
07.12.2013 11:14 3,4 C 2,2 C 96 % 1025,2 hPa 0,0 l/m 0 min 2 min 0,0 UV-I 18 W/m 2,6 km/h (1 Bft)
07.12.2013 11:16 3,4 C 2,2 C 96 % 1025,2 hPa 0,0 l/m 0 min 2 min 0,0 UV-I 16 W/m 5,1 km/h (1 Bft)
07.12.2013 11:18 3,5 C 2,2 C 96 % 1025,1 hPa 0,0 l/m 0 min 2 min 0,0 UV-I 14 W/m 0,0 km/h (0 Bft)
07.12.2013 11:20 3,5 C 2,2 C 96 % 1025,1 hPa 0,0 l/m 0 min 2 min 0,0 UV-I 16 W/m 0,0 km/h (0 Bft)
07.12.2013 11:22 3,5 C 2,2 C 96 % 1025,1 hPa 0,0 l/m 0 min 2 min 0,0 UV-I 16 W/m 7,7 km/h (2 Bft)
07.12.2013 11:24 3,5 C 2,2 C 96 % 1025,0 hPa 0,0 l/m 0 min 2 min 0,0 UV-I 16 W/m 5,1 km/h (1 Bft)
07.12.2013 11:26 3,5 C 2,2 C 96 % 1025,0 hPa 0,0 l/m 0 min 2 min 0,0 UV-I 12 W/m 0,0 km/h (0 Bft)
07.12.2013 11:28 3,5 C 2,2 C 96 % 1025,0 hPa 0,0 l/m 0 min 2 min 0,0 UV-I 12 W/m 0,0 km/h (0 Bft)
07.12.2013 11:30 3,5 C 2,2 C 96 % 1025,0 hPa 0,2 l/m 0 min 2 min 0,0 UV-I 16 W/m 0,0 km/h (0 Bft)
07.12.2013 11:32 3,5 C 2,2 C 96 % 1024,8 hPa 0,0 l/m 0 min 2 min 0,0 UV-I 18 W/m 0,0 km/h (0 Bft)
07.12.2013 11:34 3,5 C 2,8 C 96 % 1024,8 hPa 0,0 l/m 0 min 2 min 0,0 UV-I 21 W/m 0,0 km/h (0 Bft)
07.12.2013 11:36 3,6 C 2,8 C 96 % 1024,8 hPa 0,0 l/m 0 min 2 min 0,0 UV-I 23 W/m 0,0 km/h (0 Bft)
07.12.2013 11:38 3,5 C 2,8 C 96 % 1024,9 hPa 0,0 l/m 0 min 2 min 0,0 UV-I 26 W/m 7,7 km/h (2 Bft)
07.12.2013 11:40 3,6 C 2,8 C 96 % 1024,9 hPa 0,0 l/m 0 min 2 min 0,0 UV-I 26 W/m 0,0 km/h (0 Bft)
07.12.2013 11:42 3,6 C 2,8 C 96 % 1024,8 hPa 0,0 l/m 0 min 0 min 0,0 UV-I 32 W/m 0,0 km/h (0 Bft)
07.12.2013 11:44 3,6 C 2,8 C 96 % 1024,7 hPa 0,0 l/m 0 min 0 min 0,0 UV-I 30 W/m 0,0 km/h (0 Bft)
07.12.2013 11:46 3,6 C 2,8 C 96 % 1024,7 hPa 0,0 l/m 0 min 0 min 0,0 UV-I 40 W/m 0,0 km/h (0 Bft)
07.12.2013 11:48 3,6 C 2,8 C 96 % 1024,7 hPa 0,0 l/m 0 min 0 min 0,0 UV-I 33 W/m 12,9 km/h (3 Bft)
07.12.2013 11:50 3,6 C 2,8 C 96 % 1024,7 hPa 0,0 l/m 0 min 0 min 0,0 UV-I 28 W/m 5,1 km/h (1 Bft)
07.12.2013 11:52 3,6 C 2,8 C 96 % 1024,7 hPa 0,0 l/m 0 min 0 min 0,0 UV-I 30 W/m 7,7 km/h (2 Bft)
07.12.2013 11:54 3,7 C 2,8 C 96 % 1024,6 hPa 0,0 l/m 0 min 0 min 0,0 UV-I 32 W/m 0,0 km/h (0 Bft)
07.12.2013 11:56 3,7 C 2,8 C 96 % 1024,6 hPa 0,0 l/m 0 min 0 min 0,0 UV-I 35 W/m 5,1 km/h (1 Bft)
07.12.2013 11:58 3,7 C 2,8 C 96 % 1024,5 hPa 0,0 l/m 0 min 0 min 0,0 UV-I 32 W/m 2,6 km/h (1 Bft)
07.12.2013 12:00 3,7 C 2,8 C 96 % 1024,5 hPa 0,0 l/m 0 min 0 min 0,0 UV-I 32 W/m 0,0 km/h (0 Bft)
07.12.2013 12:02 3,7 C 2,8 C 97 % 1024,5 hPa 0,0 l/m 0 min 0 min 0,0 UV-I 26 W/m 2,6 km/h (1 Bft)
07.12.2013 12:04 3,7 C 2,8 C 97 % 1024,6 hPa 0,0 l/m 0 min 0 min 0,0 UV-I 25 W/m 0,0 km/h (0 Bft)
07.12.2013 12:06 3,8 C 2,8 C 97 % 1024,6 hPa 0,0 l/m 0 min 0 min 0,0 UV-I 23 W/m 5,1 km/h (1 Bft)
07.12.2013 12:08 3,8 C 2,8 C 97 % 1024,6 hPa 0,0 l/m 0 min 0 min 0,0 UV-I 16 W/m 0,0 km/h (0 Bft)
07.12.2013 12:10 3,8 C 2,8 C 97 % 1024,6 hPa 0,0 l/m 0 min 0 min 0,0 UV-I 19 W/m 0,0 km/h (0 Bft)
07.12.2013 12:12 3,8 C 2,8 C 97 % 1024,6 hPa 0,0 l/m 0 min 0 min 0,0 UV-I 23 W/m 0,0 km/h (0 Bft)
07.12.2013 12:14 3,8 C 2,8 C 97 % 1024,6 hPa 0,0 l/m 0 min 0 min 0,0 UV-I 26 W/m 0,0 km/h (0 Bft)
07.12.2013 12:16 3,8 C 2,8 C 97 % 1024,6 hPa 0,0 l/m 0 min 0 min 0,0 UV-I 33 W/m 5,1 km/h (1 Bft)
07.12.2013 12:18 3,9 C 2,8 C 97 % 1024,5 hPa 0,0 l/m 0 min 0 min 0,0 UV-I 28 W/m 5,1 km/h (1 Bft)
07.12.2013 12:20 3,9 C 3,3 C 97 % 1024,5 hPa 0,0 l/m 0 min 0 min 0,0 UV-I 26 W/m 0,0 km/h (0 Bft)
07.12.2013 12:22 3,9 C 3,3 C 97 % 1024,5 hPa 0,0 l/m 0 min 0 min 0,0 UV-I 21 W/m 5,1 km/h (1 Bft)
07.12.2013 12:24 3,9 C 3,3 C 97 % 1024,5 hPa 0,0 l/m 0 min 0 min 0,0 UV-I 25 W/m 0,0 km/h (0 Bft)
07.12.2013 12:26 3,9 C 3,3 C 97 % 1024,4 hPa 0,0 l/m 0 min 2 min 0,0 UV-I 25 W/m 0,0 km/h (0 Bft)
07.12.2013 12:28 4,0 C 3,3 C 97 % 1024,4 hPa 0,0 l/m 0 min 2 min 0,0 UV-I 21 W/m 2,6 km/h (1 Bft)
07.12.2013 12:30 4,0 C 3,3 C 97 % 1024,3 hPa 0,0 l/m 0 min 2 min 0,0 UV-I 23 W/m 0,0 km/h (0 Bft)
07.12.2013 12:32 4,0 C 3,3 C 97 % 1024,3 hPa 0,2 l/m 0 min 2 min 0,0 UV-I 28 W/m 10,3 km/h (2 Bft)
07.12.2013 12:34 4,1 C 3,3 C 97 % 1024,2 hPa 0,0 l/m 0 min 2 min 0,0 UV-I 32 W/m 5,1 km/h (1 Bft)
07.12.2013 12:36 4,1 C 3,3 C 97 % 1024,2 hPa 0,2 l/m 0 min 2 min 0,0 UV-I 37 W/m 0,0 km/h (0 Bft)
07.12.2013 12:38 4,1 C 3,3 C 97 % 1024,2 hPa 0,0 l/m 0 min 2 min 0,0 UV-I 39 W/m 2,6 km/h (1 Bft)
07.12.2013 12:40 4,2 C 3,3 C 97 % 1024,3 hPa 0,0 l/m 0 min 2 min 0,0 UV-I 40 W/m 0,0 km/h (0 Bft)
07.12.2013 12:42 4,2 C 3,3 C 97 % 1024,3 hPa 0,0 l/m 0 min 0 min 0,0 UV-I 40 W/m 12,9 km/h (3 Bft)
07.12.2013 12:44 4,3 C 3,3 C 97 % 1024,3 hPa 0,0 l/m 0 min 0 min 0,0 UV-I 40 W/m 7,7 km/h (2 Bft)
07.12.2013 12:46 4,3 C 3,9 C 97 % 1024,2 hPa 0,0 l/m 0 min 0 min 0,0 UV-I 39 W/m 5,1 km/h (1 Bft)
07.12.2013 12:48 4,4 C 3,9 C 97 % 1024,1 hPa 0,0 l/m 0 min 0 min 0,0 UV-I 42 W/m 12,9 km/h (3 Bft)
07.12.2013 12:50 4,5 C 3,9 C 97 % 1024,1 hPa 0,0 l/m 0 min 0 min 0,0 UV-I 40 W/m 2,6 km/h (1 Bft)
07.12.2013 12:52 4,5 C 3,9 C 97 % 1024,1 hPa 0,0 l/m 0 min 0 min 0,0 UV-I 37 W/m 10,3 km/h (2 Bft)
07.12.2013 12:54 4,6 C 3,9 C 97 % 1024,1 hPa 0,0 l/m 0 min 0 min 0,0 UV-I 42 W/m 2,6 km/h (1 Bft)
07.12.2013 12:56 4,6 C 3,9 C 97 % 1024,1 hPa 0,0 l/m 0 min 0 min 0,0 UV-I 37 W/m 0,0 km/h (0 Bft)
07.12.2013 12:58 4,7 C 3,9 C 97 % 1024,0 hPa 0,0 l/m 0 min 0 min 0,0 UV-I 35 W/m 0,0 km/h (0 Bft)
07.12.2013 13:00 4,7 C 3,9 C 97 % 1024,0 hPa 0,0 l/m 0 min 0 min 0,0 UV-I 35 W/m 7,7 km/h (2 Bft)
07.12.2013 13:02 4,7 C 3,9 C 97 % 1024,0 hPa 0,0 l/m 0 min 0 min 0,0 UV-I 32 W/m 5,1 km/h (1 Bft)
07.12.2013 13:04 4,8 C 3,9 C 97 % 1024,0 hPa 0,0 l/m 0 min 0 min 0,0 UV-I 32 W/m 12,9 km/h (3 Bft)
07.12.2013 13:06 4,8 C 3,9 C 97 % 1023,9 hPa 0,0 l/m 0 min 0 min 0,0 UV-I 33 W/m 12,9 km/h (3 Bft)
07.12.2013 13:08 4,9 C 3,9 C 97 % 1023,9 hPa 0,0 l/m 0 min 0 min 0,0 UV-I 47 W/m 7,7 km/h (2 Bft)
07.12.2013 13:10 4,9 C 3,9 C 97 % 1023,9 hPa 0,0 l/m 0 min 0 min 0,0 UV-I 44 W/m 10,3 km/h (2 Bft)
07.12.2013 13:12 5,0 C 3,9 C 98 % 1023,9 hPa 0,0 l/m 0 min 0 min 0,0 UV-I 40 W/m 5,1 km/h (1 Bft)
07.12.2013 13:14 5,1 C 3,9 C 98 % 1023,8 hPa 0,0 l/m 0 min 0 min 0,0 UV-I 42 W/m 7,7 km/h (2 Bft)
07.12.2013 13:16 5,1 C 3,9 C 98 % 1023,8 hPa 0,0 l/m 0 min 0 min 0,0 UV-I 32 W/m 12,9 km/h (3 Bft)
07.12.2013 13:18 5,1 C 4,4 C 98 % 1023,8 hPa 0,0 l/m 0 min 0 min 0,0 UV-I 42 W/m 15,4 km/h (3 Bft)
07.12.2013 13:20 5,2 C 4,4 C 97 % 1023,8 hPa 0,0 l/m 0 min 0 min 0,0 UV-I 54 W/m 12,9 km/h (3 Bft)
07.12.2013 13:22 5,2 C 4,4 C 97 % 1023,8 hPa 0,0 l/m 0 min 0 min 0,0 UV-I 69 W/m 5,1 km/h (1 Bft)
07.12.2013 13:24 5,3 C 4,4 C 97 % 1023,7 hPa 0,0 l/m 0 min 0 min 0,0 UV-I 70 W/m 2,6 km/h (1 Bft)
07.12.2013 13:26 5,3 C 4,4 C 97 % 1023,8 hPa 0,0 l/m 0 min 0 min 0,0 UV-I 65 W/m 10,3 km/h (2 Bft)
07.12.2013 13:28 5,3 C 4,4 C 97 % 1023,7 hPa 0,0 l/m 0 min 0 min 0,0 UV-I 51 W/m 7,7 km/h (2 Bft)
07.12.2013 13:30 5,4 C 4,4 C 98 % 1023,7 hPa 0,0 l/m 0 min 0 min 0,0 UV-I 49 W/m 12,9 km/h (3 Bft)
07.12.2013 13:32 5,4 C 4,4 C 98 % 1023,6 hPa 0,0 l/m 0 min 0 min 0,0 UV-I 42 W/m 7,7 km/h (2 Bft)
07.12.2013 13:34 5,4 C 4,4 C 98 % 1023,6 hPa 0,0 l/m 0 min 0 min 0,0 UV-I 40 W/m 7,7 km/h (2 Bft)
07.12.2013 13:36 5,4 C 4,4 C 98 % 1023,6 hPa 0,0 l/m 0 min 0 min 0,0 UV-I 49 W/m 10,3 km/h (2 Bft)
07.12.2013 13:38 5,5 C 4,4 C 98 % 1023,7 hPa 0,0 l/m 0 min 0 min 0,0 UV-I 39 W/m 7,7 km/h (2 Bft)
07.12.2013 13:40 5,5 C 4,4 C 98 % 1023,6 hPa 0,0 l/m 0 min 0 min 0,0 UV-I 32 W/m 2,6 km/h (1 Bft)
07.12.2013 13:42 5,6 C 4,4 C 98 % 1023,8 hPa 0,0 l/m 0 min 0 min 0,0 UV-I 30 W/m 15,4 km/h (3 Bft)
07.12.2013 13:44 5,6 C 4,4 C 98 % 1023,6 hPa 0,0 l/m 0 min 0 min 0,0 UV-I 39 W/m 7,7 km/h (2 Bft)
07.12.2013 13:46 5,6 C 4,4 C 98 % 1023,6 hPa 0,0 l/m 0 min 2 min 0,0 UV-I 40 W/m 10,3 km/h (2 Bft)
07.12.2013 13:48 5,6 C 4,4 C 98 % 1023,6 hPa 0,0 l/m 0 min 2 min 0,0 UV-I 60 W/m 15,4 km/h (3 Bft)
07.12.2013 13:50 5,6 C 4,4 C 98 % 1023,6 hPa 0,0 l/m 0 min 2 min 0,0 UV-I 44 W/m 10,3 km/h (2 Bft)
07.12.2013 13:52 5,7 C 4,4 C 98 % 1023,5 hPa 0,0 l/m 0 min 0 min 0,0 UV-I 39 W/m 7,7 km/h (2 Bft)
07.12.2013 13:54 5,7 C 4,4 C 98 % 1023,5 hPa 0,0 l/m 0 min 0 min 0,0 UV-I 42 W/m 7,7 km/h (2 Bft)
07.12.2013 13:56 5,7 C 4,4 C 98 % 1023,5 hPa 0,0 l/m 0 min 0 min 0,0 UV-I 33 W/m 12,9 km/h (3 Bft)
07.12.2013 13:58 5,7 C 4,4 C 98 % 1023,5 hPa 0,0 l/m 0 min 0 min 0,0 UV-I 30 W/m 18,0 km/h (3 Bft)
07.12.2013 14:00 5,8 C 4,4 C 98 % 1023,5 hPa 0,0 l/m 0 min 0 min 0,0 UV-I 35 W/m 10,3 km/h (2 Bft)
07.12.2013 14:02 5,8 C 4,4 C 98 % 1023,5 hPa 0,0 l/m 0 min 0 min 0,0 UV-I 39 W/m 18,0 km/h (3 Bft)
07.12.2013 14:04 5,8 C 4,4 C 98 % 1023,5 hPa 0,0 l/m 0 min 0 min 0,0 UV-I 30 W/m 12,9 km/h (3 Bft)
07.12.2013 14:06 5,8 C 4,4 C 98 % 1023,5 hPa 0,0 l/m 0 min 2 min 0,0 UV-I 39 W/m 12,9 km/h (3 Bft)
07.12.2013 14:08 5,9 C 4,4 C 98 % 1023,5 hPa 0,0 l/m 0 min 2 min 0,0 UV-I 37 W/m 12,9 km/h (3 Bft)
07.12.2013 14:10 5,9 C 5,0 C 98 % 1023,5 hPa 0,0 l/m 0 min 2 min 0,0 UV-I 44 W/m 15,4 km/h (3 Bft)
07.12.2013 14:12 5,9 C 5,0 C 98 % 1023,5 hPa 0,0 l/m 0 min 2 min 0,0 UV-I 33 W/m 10,3 km/h (2 Bft)
07.12.2013 14:14 5,9 C 5,0 C 98 % 1023,5 hPa 0,0 l/m 0 min 2 min 0,0 UV-I 26 W/m 23,2 km/h (4 Bft)
07.12.2013 14:16 5,9 C 5,0 C 98 % 1023,5 hPa 0,0 l/m 0 min 2 min 0,0 UV-I 23 W/m 12,9 km/h (3 Bft)
07.12.2013 14:18 6,0 C 5,0 C 98 % 1023,5 hPa 0,0 l/m 0 min 2 min 0,0 UV-I 26 W/m 12,9 km/h (3 Bft)
07.12.2013 14:20 6,0 C 5,0 C 98 % 1023,5 hPa 0,0 l/m 0 min 2 min 0,0 UV-I 26 W/m 7,7 km/h (2 Bft)
07.12.2013 14:22 6,0 C 5,0 C 98 % 1023,4 hPa 0,0 l/m 0 min 2 min 0,0 UV-I 25 W/m 10,3 km/h (2 Bft)
07.12.2013 14:24 6,0 C 5,0 C 98 % 1023,4 hPa 0,2 l/m 0 min 2 min 0,0 UV-I 19 W/m 10,3 km/h (2 Bft)
07.12.2013 14:26 6,0 C 5,0 C 98 % 1023,4 hPa 0,0 l/m 0 min 2 min 0,0 UV-I 25 W/m 7,7 km/h (2 Bft)
07.12.2013 14:28 6,1 C 5,0 C 98 % 1023,5 hPa 0,0 l/m 0 min 2 min 0,0 UV-I 21 W/m 18,0 km/h (3 Bft)
07.12.2013 14:30 6,1 C 5,0 C 98 % 1023,5 hPa 0,0 l/m 0 min 2 min 0,0 UV-I 28 W/m 10,3 km/h (2 Bft)
07.12.2013 14:32 6,1 C 5,0 C 98 % 1023,4 hPa 0,0 l/m 0 min 2 min 0,0 UV-I 30 W/m 15,4 km/h (3 Bft)
07.12.2013 14:34 6,1 C 5,0 C 98 % 1023,5 hPa 0,0 l/m 0 min 2 min 0,0 UV-I 32 W/m 10,3 km/h (2 Bft)
07.12.2013 14:36 6,1 C 5,0 C 98 % 1023,4 hPa 0,0 l/m 0 min 0 min 0,0 UV-I 26 W/m 18,0 km/h (3 Bft)
07.12.2013 14:38 6,1 C 5,0 C 98 % 1023,4 hPa 0,0 l/m 0 min 0 min 0,0 UV-I 25 W/m 12,9 km/h (3 Bft)
07.12.2013 14:40 6,1 C 5,0 C 98 % 1023,4 hPa 0,0 l/m 0 min 0 min 0,0 UV-I 25 W/m 7,7 km/h (2 Bft)
07.12.2013 14:42 6,1 C 5,0 C 98 % 1023,4 hPa 0,0 l/m 0 min 0 min 0,0 UV-I 26 W/m 2,6 km/h (1 Bft)
07.12.2013 14:44 6,1 C 5,0 C 98 % 1023,4 hPa 0,0 l/m 0 min 0 min 0,0 UV-I 23 W/m 5,1 km/h (1 Bft)
07.12.2013 14:46 6,1 C 5,0 C 98 % 1023,4 hPa 0,0 l/m 0 min 0 min 0,0 UV-I 25 W/m 2,6 km/h (1 Bft)
07.12.2013 14:48 6,1 C 5,0 C 98 % 1023,3 hPa 0,0 l/m 0 min 0 min 0,0 UV-I 28 W/m 10,3 km/h (2 Bft)
07.12.2013 14:50 6,1 C 5,0 C 98 % 1023,4 hPa 0,0 l/m 0 min 0 min 0,0 UV-I 32 W/m 2,6 km/h (1 Bft)
07.12.2013 14:52 6,2 C 5,0 C 98 % 1023,4 hPa 0,0 l/m 0 min 0 min 0,0 UV-I 25 W/m 0,0 km/h (0 Bft)
07.12.2013 14:54 6,2 C 5,0 C 98 % 1023,4 hPa 0,0 l/m 0 min 0 min 0,0 UV-I 28 W/m 10,3 km/h (2 Bft)
07.12.2013 14:56 6,2 C 5,0 C 98 % 1023,3 hPa 0,0 l/m 0 min 0 min 0,0 UV-I 32 W/m 12,9 km/h (3 Bft)
07.12.2013 14:58 6,2 C 5,0 C 98 % 1023,3 hPa 0,0 l/m 0 min 0 min 0,0 UV-I 28 W/m 7,7 km/h (2 Bft)
07.12.2013 15:00 6,2 C 5,0 C 98 % 1023,4 hPa 0,0 l/m 0 min 0 min 0,0 UV-I 25 W/m 2,6 km/h (1 Bft)
07.12.2013 15:02 6,2 C 5,0 C 98 % 1023,4 hPa 0,0 l/m 0 min 0 min 0,0 UV-I 19 W/m 10,3 km/h (2 Bft)
07.12.2013 15:04 6,2 C 5,0 C 98 % 1023,4 hPa 0,0 l/m 0 min 0 min 0,0 UV-I 18 W/m 12,9 km/h (3 Bft)
07.12.2013 15:06 6,2 C 5,0 C 98 % 1023,3 hPa 0,0 l/m 0 min 0 min 0,0 UV-I 16 W/m 7,7 km/h (2 Bft)
07.12.2013 15:08 6,2 C 5,0 C 98 % 1023,3 hPa 0,0 l/m 0 min 0 min 0,0 UV-I 16 W/m 12,9 km/h (3 Bft)
07.12.2013 15:10 6,2 C 5,0 C 98 % 1023,3 hPa 0,0 l/m 0 min 0 min 0,0 UV-I 14 W/m 7,7 km/h (2 Bft)
07.12.2013 15:12 6,2 C 5,0 C 98 % 1023,3 hPa 0,0 l/m 0 min 0 min 0,0 UV-I 14 W/m 5,1 km/h (1 Bft)
07.12.2013 15:14 6,2 C 5,0 C 98 % 1023,3 hPa 0,0 l/m 0 min 0 min 0,0 UV-I 12 W/m 7,7 km/h (2 Bft)
07.12.2013 15:16 6,2 C 5,0 C 98 % 1023,2 hPa 0,0 l/m 0 min 0 min 0,0 UV-I 14 W/m 15,4 km/h (3 Bft)
07.12.2013 15:18 6,2 C 5,0 C 98 % 1023,3 hPa 0,0 l/m 0 min 0 min 0,0 UV-I 9 W/m 10,3 km/h (2 Bft)
07.12.2013 15:20 6,2 C 5,0 C 98 % 1023,3 hPa 0,0 l/m 0 min 0 min 0,0 UV-I 7 W/m 5,1 km/h (1 Bft)
07.12.2013 15:22 6,2 C 5,0 C 98 % 1023,3 hPa 0,0 l/m 0 min 0 min 0,0 UV-I 7 W/m 15,4 km/h (3 Bft)
07.12.2013 15:24 6,2 C 5,0 C 98 % 1023,3 hPa 0,0 l/m 0 min 0 min 0,0 UV-I 7 W/m 10,3 km/h (2 Bft)
07.12.2013 15:26 6,2 C 5,0 C 98 % 1023,3 hPa 0,0 l/m 0 min 0 min 0,0 UV-I 7 W/m 10,3 km/h (2 Bft)
07.12.2013 15:28 6,2 C 5,0 C 98 % 1023,3 hPa 0,0 l/m 0 min 0 min 0,0 UV-I 7 W/m 10,3 km/h (2 Bft)
07.12.2013 15:30 6,3 C 5,0 C 98 % 1023,3 hPa 0,0 l/m 0 min 0 min 0,0 UV-I 9 W/m 2,6 km/h (1 Bft)
07.12.2013 15:32 6,3 C 5,0 C 98 % 1023,2 hPa 0,0 l/m 0 min 0 min 0,0 UV-I 18 W/m 5,1 km/h (1 Bft)
07.12.2013 15:34 6,3 C 5,0 C 98 % 1023,3 hPa 0,0 l/m 0 min 0 min 0,0 UV-I 19 W/m 5,1 km/h (1 Bft)
07.12.2013 15:36 6,3 C 5,0 C 98 % 1023,3 hPa 0,0 l/m 0 min 0 min 0,0 UV-I 14 W/m 10,3 km/h (2 Bft)
07.12.2013 15:38 6,3 C 5,0 C 98 % 1023,3 hPa 0,0 l/m 0 min 0 min 0,0 UV-I 11 W/m 7,7 km/h (2 Bft)
07.12.2013 15:40 6,3 C 5,0 C 98 % 1023,3 hPa 0,0 l/m 0 min 0 min 0,0 UV-I 12 W/m 7,7 km/h (2 Bft)
07.12.2013 15:42 6,3 C 5,0 C 98 % 1023,2 hPa 0,0 l/m 0 min 0 min 0,0 UV-I 14 W/m 5,1 km/h (1 Bft)
07.12.2013 15:44 6,3 C 5,0 C 98 % 1023,2 hPa 0,0 l/m 0 min 0 min 0,0 UV-I 12 W/m 10,3 km/h (2 Bft)
07.12.2013 15:46 6,3 C 5,0 C 98 % 1023,3 hPa 0,0 l/m 0 min 0 min 0,0 UV-I 16 W/m 15,4 km/h (3 Bft)
07.12.2013 15:48 6,3 C 5,0 C 98 % 1023,3 hPa 0,0 l/m 0 min 0 min 0,0 UV-I 16 W/m 7,7 km/h (2 Bft)
07.12.2013 15:50 6,3 C 5,0 C 98 % 1023,2 hPa 0,0 l/m 0 min 0 min 0,0 UV-I 16 W/m 10,3 km/h (2 Bft)
07.12.2013 15:52 6,3 C 5,0 C 98 % 1023,3 hPa 0,0 l/m 0 min 0 min 0,0 UV-I 14 W/m 0,0 km/h (0 Bft)
07.12.2013 15:54 6,4 C 5,0 C 98 % 1023,3 hPa 0,0 l/m 0 min 0 min 0,0 UV-I 12 W/m 0,0 km/h (0 Bft)
07.12.2013 15:56 6,4 C 5,0 C 98 % 1023,4 hPa 0,0 l/m 0 min 0 min 0,0 UV-I 11 W/m 5,1 km/h (1 Bft)
07.12.2013 15:58 6,4 C 5,0 C 98 % 1023,4 hPa 0,0 l/m 0 min 0 min 0,0 UV-I 11 W/m 5,1 km/h (1 Bft)
07.12.2013 16:00 6,4 C 5,0 C 98 % 1023,4 hPa 0,0 l/m 0 min 0 min 0,0 UV-I 11 W/m 12,9 km/h (3 Bft)
07.12.2013 16:02 6,4 C 5,0 C 98 % 1023,4 hPa 0,0 l/m 0 min 0 min 0,0 UV-I 12 W/m 7,7 km/h (2 Bft)
07.12.2013 16:04 6,4 C 5,0 C 98 % 1023,4 hPa 0,0 l/m 0 min 0 min 0,0 UV-I 12 W/m 10,3 km/h (2 Bft)
07.12.2013 16:06 6,4 C 5,0 C 98 % 1023,4 hPa 0,0 l/m 0 min 0 min 0,0 UV-I 9 W/m 0,0 km/h (0 Bft)
07.12.2013 16:08 6,4 C 5,0 C 98 % 1023,5 hPa 0,0 l/m 0 min 0 min 0,0 UV-I 9 W/m 0,0 km/h (0 Bft)
07.12.2013 16:10 6,4 C 5,0 C 98 % 1023,4 hPa 0,0 l/m 0 min 0 min 0,0 UV-I 11 W/m 5,1 km/h (1 Bft)
07.12.2013 16:12 6,4 C 5,0 C 98 % 1023,4 hPa 0,0 l/m 0 min 0 min 0,0 UV-I 11 W/m 0,0 km/h (0 Bft)
07.12.2013 16:14 6,4 C 5,0 C 98 % 1023,3 hPa 0,0 l/m 0 min 0 min 0,0 UV-I 7 W/m 12,9 km/h (3 Bft)
07.12.2013 16:16 6,4 C 5,0 C 98 % 1023,3 hPa 0,0 l/m 0 min 0 min 0,0 UV-I 5 W/m 10,3 km/h (2 Bft)
07.12.2013 16:18 6,4 C 5,0 C 98 % 1023,3 hPa 0,0 l/m 0 min 0 min 0,0 UV-I 5 W/m 7,7 km/h (2 Bft)
07.12.2013 16:20 6,4 C 5,0 C 98 % 1023,4 hPa 0,0 l/m 0 min 0 min 0,0 UV-I 5 W/m 7,7 km/h (2 Bft)
07.12.2013 16:22 6,4 C 5,0 C 98 % 1023,4 hPa 0,0 l/m 0 min 0 min 0,0 UV-I 5 W/m 5,1 km/h (1 Bft)
07.12.2013 16:24 6,4 C 5,0 C 98 % 1023,3 hPa 0,0 l/m 0 min 0 min 0,0 UV-I 0 W/m 10,3 km/h (2 Bft)
07.12.2013 16:26 6,4 C 5,0 C 98 % 1023,3 hPa 0,0 l/m 0 min 0 min 0,0 UV-I 0 W/m 0,0 km/h (0 Bft)
07.12.2013 16:28 6,4 C 5,0 C 98 % 1023,3 hPa 0,0 l/m 0 min 0 min 0,0 UV-I 0 W/m 10,3 km/h (2 Bft)
07.12.2013 16:30 6,4 C 5,0 C 98 % 1023,3 hPa 0,0 l/m 0 min 0 min 0,0 UV-I 0 W/m 7,7 km/h (2 Bft)
07.12.2013 16:32 6,4 C 5,0 C 98 % 1023,4 hPa 0,0 l/m 0 min 0 min 0,0 UV-I 0 W/m 0,0 km/h (0 Bft)
07.12.2013 16:34 6,4 C 5,0 C 98 % 1023,4 hPa 0,0 l/m 0 min 0 min 0,0 UV-I 0 W/m 0,0 km/h (0 Bft)
07.12.2013 16:36 6,4 C 5,0 C 98 % 1023,5 hPa 0,0 l/m 0 min 0 min 0,0 UV-I 0 W/m 5,1 km/h (1 Bft)
07.12.2013 16:38 6,4 C 5,0 C 98 % 1023,6 hPa 0,0 l/m 0 min 0 min 0,0 UV-I 0 W/m 0,0 km/h (0 Bft)
07.12.2013 16:40 6,4 C 4,4 C 98 % 1023,4 hPa 0,0 l/m 0 min 0 min 0,0 UV-I 0 W/m 7,7 km/h (2 Bft)
07.12.2013 16:42 6,4 C 4,4 C 98 % 1023,3 hPa 0,0 l/m 0 min 0 min 0,0 UV-I 0 W/m 5,1 km/h (1 Bft)
07.12.2013 16:44 6,4 C 4,4 C 98 % 1023,4 hPa 0,0 l/m 0 min 0 min 0,0 UV-I 0 W/m 0,0 km/h (0 Bft)
07.12.2013 16:46 6,4 C 5,0 C 98 % 1023,4 hPa 0,0 l/m 0 min 0 min 0,0 UV-I 0 W/m 0,0 km/h (0 Bft)
07.12.2013 16:48 6,4 C 5,0 C 98 % 1023,3 hPa 0,0 l/m 0 min 0 min 0,0 UV-I 0 W/m 2,6 km/h (1 Bft)
07.12.2013 16:50 6,4 C 5,0 C 98 % 1023,3 hPa 0,0 l/m 0 min 2 min 0,0 UV-I 0 W/m 0,0 km/h (0 Bft)
07.12.2013 16:52 6,4 C 4,4 C 98 % 1023,3 hPa 0,0 l/m 0 min 0 min 0,0 UV-I 0 W/m 15,4 km/h (3 Bft)
07.12.2013 16:54 6,4 C 5,0 C 98 % 1023,5 hPa 0,0 l/m 0 min 0 min 0,0 UV-I 0 W/m 12,9 km/h (3 Bft)
07.12.2013 16:56 6,4 C 5,0 C 98 % 1023,5 hPa 0,0 l/m 0 min 0 min 0,0 UV-I 0 W/m 10,3 km/h (2 Bft)
07.12.2013 16:58 6,4 C 5,0 C 98 % 1023,4 hPa 0,0 l/m 0 min 0 min 0,0 UV-I 0 W/m 10,3 km/h (2 Bft)
07.12.2013 17:00 6,4 C 5,0 C 98 % 1023,4 hPa 0,0 l/m 0 min 0 min 0,0 UV-I 0 W/m 7,7 km/h (2 Bft)
07.12.2013 17:02 6,4 C 5,0 C 98 % 1023,5 hPa 0,0 l/m 0 min 0 min 0,0 UV-I 0 W/m 2,6 km/h (1 Bft)
07.12.2013 17:04 6,4 C 5,0 C 98 % 1023,5 hPa 0,0 l/m 0 min 0 min 0,0 UV-I 0 W/m 5,1 km/h (1 Bft)
07.12.2013 17:06 6,4 C 4,4 C 98 % 1023,4 hPa 0,0 l/m 0 min 0 min 0,0 UV-I 0 W/m 2,6 km/h (1 Bft)
07.12.2013 17:08 6,4 C 4,4 C 98 % 1023,4 hPa 0,0 l/m 0 min 0 min 0,0 UV-I 0 W/m 0,0 km/h (0 Bft)
07.12.2013 17:10 6,4 C 4,4 C 98 % 1023,4 hPa 0,0 l/m 0 min 0 min 0,0 UV-I 0 W/m 2,6 km/h (1 Bft)
07.12.2013 17:12 6,4 C 4,4 C 98 % 1023,6 hPa 0,0 l/m 0 min 0 min 0,0 UV-I 0 W/m 0,0 km/h (0 Bft)
07.12.2013 17:14 6,4 C 4,4 C 98 % 1023,4 hPa 0,0 l/m 0 min 0 min 0,0 UV-I 0 W/m 0,0 km/h (0 Bft)
07.12.2013 17:16 6,4 C 4,4 C 98 % 1023,4 hPa 0,0 l/m 0 min 0 min 0,0 UV-I 0 W/m 10,3 km/h (2 Bft)
07.12.2013 17:18 6,3 C 4,4 C 98 % 1023,3 hPa 0,0 l/m 0 min 0 min 0,0 UV-I 0 W/m 2,6 km/h (1 Bft)
07.12.2013 17:20 6,3 C 4,4 C 98 % 1023,4 hPa 0,0 l/m 0 min 0 min 0,0 UV-I 0 W/m 2,6 km/h (1 Bft)
07.12.2013 17:22 6,3 C 4,4 C 98 % 1023,4 hPa 0,0 l/m 0 min 0 min 0,0 UV-I 0 W/m 0,0 km/h (0 Bft)
07.12.2013 17:24 6,3 C 4,4 C 98 % 1023,3 hPa 0,0 l/m 0 min 0 min 0,0 UV-I 0 W/m 10,3 km/h (2 Bft)
07.12.2013 17:26 6,3 C 4,4 C 98 % 1023,3 hPa 0,0 l/m 0 min 0 min 0,0 UV-I 0 W/m 5,1 km/h (1 Bft)
07.12.2013 17:28 6,3 C 4,4 C 98 % 1023,4 hPa 0,0 l/m 0 min 0 min 0,0 UV-I 0 W/m 0,0 km/h (0 Bft)
07.12.2013 17:30 6,3 C 4,4 C 97 % 1023,3 hPa 0,0 l/m 0 min 0 min 0,0 UV-I 0 W/m 10,3 km/h (2 Bft)
07.12.2013 17:32 6,3 C 4,4 C 97 % 1023,3 hPa 0,0 l/m 0 min 0 min 0,0 UV-I 0 W/m 7,7 km/h (2 Bft)
07.12.2013 17:34 6,3 C 4,4 C 97 % 1023,4 hPa 0,0 l/m 0 min 0 min 0,0 UV-I 0 W/m 2,6 km/h (1 Bft)
07.12.2013 17:36 6,3 C 4,4 C 97 % 1023,3 hPa 0,0 l/m 0 min 0 min 0,0 UV-I 0 W/m 0,0 km/h (0 Bft)
07.12.2013 17:38 6,2 C 4,4 C 97 % 1023,3 hPa 0,0 l/m 0 min 0 min 0,0 UV-I 0 W/m 5,1 km/h (1 Bft)
07.12.2013 17:40 6,2 C 4,4 C 97 % 1023,3 hPa 0,0 l/m 0 min 0 min 0,0 UV-I 0 W/m 7,7 km/h (2 Bft)
07.12.2013 17:42 6,2 C 4,4 C 97 % 1023,3 hPa 0,0 l/m 0 min 0 min 0,0 UV-I 0 W/m 2,6 km/h (1 Bft)
07.12.2013 17:44 6,2 C 4,4 C 97 % 1023,4 hPa 0,0 l/m 0 min 0 min 0,0 UV-I 0 W/m 10,3 km/h (2 Bft)
07.12.2013 17:46 6,2 C 4,4 C 97 % 1023,5 hPa 0,0 l/m 0 min 0 min 0,0 UV-I 0 W/m 15,4 km/h (3 Bft)
07.12.2013 17:48 6,2 C 4,4 C 97 % 1023,4 hPa 0,0 l/m 0 min 0 min 0,0 UV-I 0 W/m 10,3 km/h (2 Bft)
07.12.2013 17:50 6,2 C 4,4 C 97 % 1023,3 hPa 0,0 l/m 0 min 0 min 0,0 UV-I 0 W/m 7,7 km/h (2 Bft)
07.12.2013 17:52 6,2 C 4,4 C 97 % 1023,3 hPa 0,0 l/m 0 min 0 min 0,0 UV-I 0 W/m 7,7 km/h (2 Bft)
07.12.2013 17:54 6,2 C 4,4 C 97 % 1023,3 hPa 0,0 l/m 0 min 0 min 0,0 UV-I 0 W/m 10,3 km/h (2 Bft)
07.12.2013 17:56 6,2 C 4,4 C 97 % 1023,3 hPa 0,0 l/m 0 min 0 min 0,0 UV-I 0 W/m 5,1 km/h (1 Bft)
07.12.2013 17:58 6,2 C 4,4 C 97 % 1023,3 hPa 0,0 l/m 0 min 0 min 0,0 UV-I 0 W/m 12,9 km/h (3 Bft)
07.12.2013 18:00 6,2 C 4,4 C 97 % 1023,4 hPa 0,0 l/m 0 min 0 min 0,0 UV-I 0 W/m 10,3 km/h (2 Bft)
07.12.2013 18:02 6,3 C 4,4 C 97 % 1023,6 hPa 0,0 l/m 0 min 0 min 0,0 UV-I 0 W/m 12,9 km/h (3 Bft)
07.12.2013 18:04 6,3 C 4,4 C 97 % 1023,4 hPa 0,0 l/m 0 min 0 min 0,0 UV-I 0 W/m 12,9 km/h (3 Bft)
07.12.2013 18:06 6,3 C 4,4 C 97 % 1023,4 hPa 0,0 l/m 0 min 0 min 0,0 UV-I 0 W/m 2,6 km/h (1 Bft)
07.12.2013 18:08 6,3 C 4,4 C 97 % 1023,4 hPa 0,0 l/m 0 min 0 min 0,0 UV-I 0 W/m 10,3 km/h (2 Bft)
07.12.2013 18:10 6,3 C 4,4 C 97 % 1023,3 hPa 0,0 l/m 0 min 0 min 0,0 UV-I 0 W/m 10,3 km/h (2 Bft)
07.12.2013 18:12 6,3 C 4,4 C 97 % 1023,3 hPa 0,0 l/m 0 min 0 min 0,0 UV-I 0 W/m 5,1 km/h (1 Bft)
07.12.2013 18:15 6,3 C 4,4 C 97 % 1023,3 hPa 0,0 l/m 0 min 0 min 0,0 UV-I 0 W/m 5,1 km/h (1 Bft)
07.12.2013 18:20 6,3 C 4,4 C 97 % 1023,6 hPa 0,0 l/m 0 min 0 min 0,0 UV-I 0 W/m 10,3 km/h (2 Bft)
07.12.2013 18:22 6,3 C 4,4 C 97 % 1023,4 hPa 0,0 l/m 0 min 0 min 0,0 UV-I 0 W/m 2,6 km/h (1 Bft)
07.12.2013 18:24 6,3 C 4,4 C 97 % 1023,4 hPa 0,0 l/m 0 min 0 min 0,0 UV-I 0 W/m 7,7 km/h (2 Bft)
07.12.2013 18:26 6,3 C 4,4 C 97 % 1023,4 hPa 0,0 l/m 0 min 2 min 0,0 UV-I 0 W/m 7,7 km/h (2 Bft)
07.12.2013 18:28 6,3 C 4,4 C 97 % 1023,4 hPa 0,0 l/m 0 min 2 min 0,0 UV-I 0 W/m 7,7 km/h (2 Bft)
07.12.2013 18:30 6,3 C 4,4 C 97 % 1023,5 hPa 0,0 l/m 0 min 2 min 0,0 UV-I 0 W/m 2,6 km/h (1 Bft)
07.12.2013 18:35 6,3 C 4,4 C 97 % 1023,5 hPa 0,4 l/m 0 min 2 min 0,0 UV-I 0 W/m 20,6 km/h (4 Bft)
07.12.2013 18:42 6,3 C 4,4 C 97 % 1023,7 hPa 0,2 l/m 0 min 2 min 0,0 UV-I 0 W/m 0,0 km/h (0 Bft)
07.12.2013 18:44 6,3 C 4,4 C 97 % 1023,7 hPa 0,0 l/m 0 min 2 min 0,0 UV-I 0 W/m 12,9 km/h (3 Bft)
07.12.2013 18:46 6,3 C 4,4 C 97 % 1023,7 hPa 0,2 l/m 0 min 2 min 0,0 UV-I 0 W/m 5,1 km/h (1 Bft)
07.12.2013 18:48 6,3 C 4,4 C 97 % 1023,6 hPa 0,2 l/m 0 min 2 min 0,0 UV-I 0 W/m 2,6 km/h (1 Bft)
07.12.2013 18:50 6,3 C 4,4 C 97 % 1023,5 hPa 0,0 l/m 0 min 2 min 0,0 UV-I 0 W/m 2,6 km/h (1 Bft)
07.12.2013 18:52 6,3 C 4,4 C 97 % 1023,5 hPa 0,0 l/m 0 min 2 min 0,0 UV-I 0 W/m 0,0 km/h (0 Bft)
07.12.2013 18:54 6,3 C 4,4 C 97 % 1023,7 hPa 0,0 l/m 0 min 2 min 0,0 UV-I 0 W/m 0,0 km/h (0 Bft)
07.12.2013 18:56 6,3 C 4,4 C 97 % 1023,5 hPa 0,0 l/m 0 min 0 min 0,0 UV-I 0 W/m 0,0 km/h (0 Bft)
07.12.2013 18:58 6,3 C 4,4 C 97 % 1023,4 hPa 0,0 l/m 0 min 0 min 0,0 UV-I 0 W/m 0,0 km/h (0 Bft)
07.12.2013 19:00 6,3 C 4,4 C 97 % 1023,4 hPa 0,0 l/m 0 min 0 min 0,0 UV-I 0 W/m 0,0 km/h (0 Bft)
07.12.2013 19:02 6,3 C 4,4 C 97 % 1023,4 hPa 0,0 l/m 0 min 0 min 0,0 UV-I 0 W/m 0,0 km/h (0 Bft)
07.12.2013 19:04 6,3 C 4,4 C 97 % 1023,4 hPa 0,0 l/m 0 min 0 min 0,0 UV-I 0 W/m 2,6 km/h (1 Bft)
07.12.2013 19:06 6,2 C 4,4 C 97 % 1023,5 hPa 0,0 l/m 0 min 0 min 0,0 UV-I 0 W/m 0,0 km/h (0 Bft)
07.12.2013 19:08 6,2 C 4,4 C 97 % 1023,4 hPa 0,0 l/m 0 min 0 min 0,0 UV-I 0 W/m 0,0 km/h (0 Bft)
07.12.2013 19:10 6,2 C 4,4 C 97 % 1023,7 hPa 0,0 l/m 0 min 0 min 0,0 UV-I 0 W/m 7,7 km/h (2 Bft)
07.12.2013 19:12 6,2 C 4,4 C 97 % 1023,7 hPa 0,0 l/m 0 min 0 min 0,0 UV-I 0 W/m 0,0 km/h (0 Bft)
07.12.2013 19:14 6,2 C 4,4 C 97 % 1023,7 hPa 0,0 l/m 0 min 0 min 0,0 UV-I 0 W/m 7,7 km/h (2 Bft)
07.12.2013 19:16 6,2 C 4,4 C 97 % 1023,5 hPa 0,0 l/m 0 min 0 min 0,0 UV-I 0 W/m 5,1 km/h (1 Bft)
07.12.2013 19:18 6,2 C 4,4 C 97 % 1023,4 hPa 0,0 l/m 0 min 0 min 0,0 UV-I 0 W/m 5,1 km/h (1 Bft)
07.12.2013 19:20 6,2 C 4,4 C 97 % 1023,4 hPa 0,0 l/m 0 min 0 min 0,0 UV-I 0 W/m 5,1 km/h (1 Bft)
07.12.2013 19:22 6,1 C 4,4 C 97 % 1023,4 hPa 0,0 l/m 0 min 0 min 0,0 UV-I 0 W/m 2,6 km/h (1 Bft)
07.12.2013 19:24 6,1 C 4,4 C 97 % 1023,5 hPa 0,0 l/m 0 min 0 min 0,0 UV-I 0 W/m 10,3 km/h (2 Bft)
07.12.2013 19:26 6,1 C 4,4 C 97 % 1023,4 hPa 0,0 l/m 0 min 0 min 0,0 UV-I 0 W/m 2,6 km/h (1 Bft)
07.12.2013 19:28 6,1 C 4,4 C 96 % 1023,7 hPa 0,0 l/m 0 min 0 min 0,0 UV-I 0 W/m 10,3 km/h (2 Bft)
07.12.2013 19:30 6,1 C 4,4 C 96 % 1023,7 hPa 0,0 l/m 0 min 0 min 0,0 UV-I 0 W/m 7,7 km/h (2 Bft)
07.12.2013 19:32 6,1 C 4,4 C 96 % 1023,7 hPa 0,0 l/m 0 min 0 min 0,0 UV-I 0 W/m 7,7 km/h (2 Bft)
07.12.2013 19:34 6,1 C 4,4 C 96 % 1023,6 hPa 0,0 l/m 0 min 0 min 0,0 UV-I 0 W/m 7,7 km/h (2 Bft)
07.12.2013 19:36 6,1 C 4,4 C 96 % 1023,5 hPa 0,0 l/m 0 min 0 min 0,0 UV-I 0 W/m 10,3 km/h (2 Bft)
07.12.2013 19:38 6,1 C 4,4 C 96 % 1023,5 hPa 0,0 l/m 0 min 0 min 0,0 UV-I 0 W/m 15,4 km/h (3 Bft)
07.12.2013 19:40 6,1 C 4,4 C 96 % 1023,6 hPa 0,0 l/m 0 min 0 min 0,0 UV-I 0 W/m 7,7 km/h (2 Bft)
07.12.2013 19:42 6,1 C 4,4 C 96 % 1023,5 hPa 0,0 l/m 0 min 0 min 0,0 UV-I 0 W/m 0,0 km/h (0 Bft)
07.12.2013 19:44 6,1 C 4,4 C 96 % 1023,8 hPa 0,0 l/m 0 min 0 min 0,0 UV-I 0 W/m 7,7 km/h (2 Bft)
07.12.2013 19:46 6,1 C 4,4 C 96 % 1023,7 hPa 0,0 l/m 0 min 0 min 0,0 UV-I 0 W/m 10,3 km/h (2 Bft)
07.12.2013 19:48 6,1 C 4,4 C 96 % 1023,7 hPa 0,0 l/m 0 min 0 min 0,0 UV-I 0 W/m 0,0 km/h (0 Bft)
07.12.2013 19:50 6,1 C 4,4 C 96 % 1023,7 hPa 0,0 l/m 0 min 0 min 0,0 UV-I 0 W/m 2,6 km/h (1 Bft)
07.12.2013 19:52 6,1 C 4,4 C 96 % 1023,7 hPa 0,0 l/m 0 min 0 min 0,0 UV-I 0 W/m 5,1 km/h (1 Bft)
07.12.2013 19:54 6,1 C 4,4 C 97 % 1023,8 hPa 0,0 l/m 0 min 0 min 0,0 UV-I 0 W/m 7,7 km/h (2 Bft)
07.12.2013 19:56 6,1 C 4,4 C 97 % 1023,7 hPa 0,0 l/m 0 min 0 min 0,0 UV-I 0 W/m 12,9 km/h (3 Bft)
07.12.2013 19:58 6,1 C 4,4 C 96 % 1023,7 hPa 0,0 l/m 0 min 0 min 0,0 UV-I 0 W/m 5,1 km/h (1 Bft)
07.12.2013 20:00 6,1 C 4,4 C 97 % 1023,8 hPa 0,0 l/m 0 min 0 min 0,0 UV-I 0 W/m 0,0 km/h (0 Bft)
07.12.2013 20:02 6,1 C 4,4 C 97 % 1023,8 hPa 0,0 l/m 0 min 0 min 0,0 UV-I 0 W/m 7,7 km/h (2 Bft)
07.12.2013 20:04 6,1 C 4,4 C 96 % 1023,8 hPa 0,0 l/m 0 min 0 min 0,0 UV-I 0 W/m 2,6 km/h (1 Bft)
07.12.2013 20:06 6,1 C 4,4 C 97 % 1023,8 hPa 0,0 l/m 0 min 0 min 0,0 UV-I 0 W/m 5,1 km/h (1 Bft)
07.12.2013 20:08 6,1 C 4,4 C 96 % 1023,7 hPa 0,0 l/m 0 min 0 min 0,0 UV-I 0 W/m 5,1 km/h (1 Bft)
07.12.2013 20:10 6,1 C 4,4 C 97 % 1023,7 hPa 0,0 l/m 0 min 0 min 0,0 UV-I 0 W/m 5,1 km/h (1 Bft)
07.12.2013 20:12 6,1 C 4,4 C 96 % 1023,7 hPa 0,0 l/m 0 min 0 min 0,0 UV-I 0 W/m 12,9 km/h (3 Bft)
07.12.2013 20:14 6,1 C 4,4 C 96 % 1023,6 hPa 0,0 l/m 0 min 0 min 0,0 UV-I 0 W/m 10,3 km/h (2 Bft)
07.12.2013 20:16 6,1 C 4,4 C 96 % 1023,5 hPa 0,0 l/m 0 min 0 min 0,0 UV-I 0 W/m 12,9 km/h (3 Bft)
07.12.2013 20:18 6,1 C 4,4 C 96 % 1023,7 hPa 0,0 l/m 0 min 0 min 0,0 UV-I 0 W/m 5,1 km/h (1 Bft)
07.12.2013 20:20 6,1 C 4,4 C 96 % 1023,7 hPa 0,0 l/m 0 min 0 min 0,0 UV-I 0 W/m 0,0 km/h (0 Bft)
07.12.2013 20:22 6,1 C 4,4 C 96 % 1023,7 hPa 0,0 l/m 0 min 0 min 0,0 UV-I 0 W/m 10,3 km/h (2 Bft)
07.12.2013 20:24 6,1 C 4,4 C 96 % 1023,7 hPa 0,0 l/m 0 min 0 min 0,0 UV-I 0 W/m 10,3 km/h (2 Bft)
07.12.2013 20:26 6,1 C 4,4 C 96 % 1023,7 hPa 0,0 l/m 0 min 0 min 0,0 UV-I 0 W/m 0,0 km/h (0 Bft)
07.12.2013 20:28 6,1 C 4,4 C 96 % 1023,5 hPa 0,0 l/m 0 min 0 min 0,0 UV-I 0 W/m 5,1 km/h (1 Bft)
07.12.2013 20:30 6,1 C 4,4 C 96 % 1023,6 hPa 0,0 l/m 0 min 0 min 0,0 UV-I 0 W/m 2,6 km/h (1 Bft)
07.12.2013 20:32 6,0 C 4,4 C 96 % 1023,6 hPa 0,0 l/m 0 min 0 min 0,0 UV-I 0 W/m 7,7 km/h (2 Bft)
07.12.2013 20:34 6,0 C 4,4 C 96 % 1023,7 hPa 0,0 l/m 0 min 0 min 0,0 UV-I 0 W/m 10,3 km/h (2 Bft)
07.12.2013 20:36 6,0 C 4,4 C 96 % 1023,7 hPa 0,0 l/m 0 min 0 min 0,0 UV-I 0 W/m 5,1 km/h (1 Bft)
07.12.2013 20:38 6,0 C 4,4 C 96 % 1023,7 hPa 0,0 l/m 0 min 0 min 0,0 UV-I 0 W/m 5,1 km/h (1 Bft)
07.12.2013 20:40 6,0 C 4,4 C 96 % 1023,7 hPa 0,0 l/m 0 min 0 min 0,0 UV-I 0 W/m 0,0 km/h (0 Bft)
07.12.2013 20:42 6,0 C 4,4 C 96 % 1023,8 hPa 0,0 l/m 0 min 0 min 0,0 UV-I 0 W/m 2,6 km/h (1 Bft)
07.12.2013 20:44 6,0 C 4,4 C 96 % 1023,7 hPa 0,0 l/m 0 min 0 min 0,0 UV-I 0 W/m 12,9 km/h (3 Bft)
07.12.2013 20:46 6,0 C 4,4 C 96 % 1023,8 hPa 0,0 l/m 0 min 0 min 0,0 UV-I 0 W/m 5,1 km/h (1 Bft)
07.12.2013 20:48 5,9 C 4,4 C 96 % 1023,7 hPa 0,0 l/m 0 min 0 min 0,0 UV-I 0 W/m 10,3 km/h (2 Bft)
07.12.2013 20:50 5,9 C 4,4 C 96 % 1023,7 hPa 0,0 l/m 0 min 0 min 0,0 UV-I 0 W/m 7,7 km/h (2 Bft)
07.12.2013 20:52 5,9 C 4,4 C 96 % 1024,0 hPa 0,0 l/m 0 min 0 min 0,0 UV-I 0 W/m 18,0 km/h (3 Bft)
07.12.2013 20:54 5,9 C 4,4 C 96 % 1023,9 hPa 0,0 l/m 0 min 2 min 0,0 UV-I 0 W/m 2,6 km/h (1 Bft)
07.12.2013 20:56 5,9 C 4,4 C 96 % 1023,9 hPa 0,0 l/m 0 min 2 min 0,0 UV-I 0 W/m 12,9 km/h (3 Bft)
07.12.2013 20:58 5,9 C 4,4 C 96 % 1023,9 hPa 0,0 l/m 0 min 0 min 0,0 UV-I 0 W/m 5,1 km/h (1 Bft)
07.12.2013 21:00 5,9 C 4,4 C 96 % 1023,8 hPa 0,0 l/m 0 min 0 min 0,0 UV-I 0 W/m 2,6 km/h (1 Bft)
07.12.2013 21:02 5,9 C 4,4 C 96 % 1023,8 hPa 0,0 l/m 0 min 0 min 0,0 UV-I 0 W/m 12,9 km/h (3 Bft)
07.12.2013 21:04 5,9 C 4,4 C 96 % 1023,8 hPa 0,0 l/m 0 min 0 min 0,0 UV-I 0 W/m 10,3 km/h (2 Bft)
07.12.2013 21:06 5,9 C 4,4 C 96 % 1023,8 hPa 0,0 l/m 0 min 0 min 0,0 UV-I 0 W/m 10,3 km/h (2 Bft)
07.12.2013 21:08 5,9 C 4,4 C 96 % 1023,8 hPa 0,0 l/m 0 min 0 min 0,0 UV-I 0 W/m 5,1 km/h (1 Bft)
07.12.2013 21:10 5,9 C 3,9 C 96 % 1023,8 hPa 0,0 l/m 0 min 0 min 0,0 UV-I 0 W/m 0,0 km/h (0 Bft)
07.12.2013 21:12 5,9 C 3,9 C 96 % 1023,9 hPa 0,0 l/m 0 min 0 min 0,0 UV-I 0 W/m 0,0 km/h (0 Bft)
07.12.2013 21:14 5,9 C 3,9 C 96 % 1023,9 hPa 0,0 l/m 0 min 0 min 0,0 UV-I 0 W/m 5,1 km/h (1 Bft)
07.12.2013 21:16 5,8 C 3,9 C 96 % 1023,7 hPa 0,0 l/m 0 min 0 min 0,0 UV-I 0 W/m 7,7 km/h (2 Bft)
07.12.2013 21:18 5,9 C 3,9 C 96 % 1023,8 hPa 0,0 l/m 0 min 0 min 0,0 UV-I 0 W/m 0,0 km/h (0 Bft)
07.12.2013 21:20 5,8 C 4,4 C 96 % 1023,7 hPa 0,0 l/m 0 min 2 min 0,0 UV-I 0 W/m 10,3 km/h (2 Bft)
07.12.2013 21:22 5,8 C 3,9 C 96 % 1023,7 hPa 0,0 l/m 0 min 2 min 0,0 UV-I 0 W/m 7,7 km/h (2 Bft)
07.12.2013 21:24 5,8 C 3,9 C 96 % 1023,5 hPa 0,0 l/m 0 min 2 min 0,0 UV-I 0 W/m 15,4 km/h (3 Bft)
07.12.2013 21:26 5,8 C 3,9 C 96 % 1023,8 hPa 0,0 l/m 0 min 0 min 0,0 UV-I 0 W/m 5,1 km/h (1 Bft)
07.12.2013 21:28 5,8 C 3,9 C 96 % 1023,7 hPa 0,0 l/m 0 min 0 min 0,0 UV-I 0 W/m 2,6 km/h (1 Bft)
07.12.2013 21:30 5,8 C 3,9 C 96 % 1023,7 hPa 0,0 l/m 0 min 0 min 0,0 UV-I 0 W/m 0,0 km/h (0 Bft)
07.12.2013 21:32 5,8 C 3,9 C 96 % 1023,7 hPa 0,0 l/m 0 min 0 min 0,0 UV-I 0 W/m 7,7 km/h (2 Bft)
07.12.2013 21:34 5,8 C 3,9 C 96 % 1023,9 hPa 0,0 l/m 0 min 0 min 0,0 UV-I 0 W/m 7,7 km/h (2 Bft)
07.12.2013 21:36 5,8 C 3,9 C 96 % 1023,7 hPa 0,0 l/m 0 min 0 min 0,0 UV-I 0 W/m 7,7 km/h (2 Bft)
07.12.2013 21:38 5,8 C 3,9 C 96 % 1023,7 hPa 0,0 l/m 0 min 0 min 0,0 UV-I 0 W/m 10,3 km/h (2 Bft)
07.12.2013 21:40 5,8 C 4,4 C 96 % 1023,6 hPa 0,0 l/m 0 min 0 min 0,0 UV-I 0 W/m 5,1 km/h (1 Bft)
07.12.2013 21:42 5,8 C 4,4 C 96 % 1023,9 hPa 0,0 l/m 0 min 0 min 0,0 UV-I 0 W/m 2,6 km/h (1 Bft)
07.12.2013 21:44 5,8 C 4,4 C 96 % 1023,9 hPa 0,0 l/m 0 min 0 min 0,0 UV-I 0 W/m 10,3 km/h (2 Bft)
07.12.2013 21:46 5,9 C 4,4 C 96 % 1023,8 hPa 0,0 l/m 0 min 0 min 0,0 UV-I 0 W/m 10,3 km/h (2 Bft)
07.12.2013 21:48 5,9 C 4,4 C 96 % 1023,8 hPa 0,0 l/m 0 min 0 min 0,0 UV-I 0 W/m 12,9 km/h (3 Bft)
07.12.2013 21:50 5,9 C 4,4 C 96 % 1023,7 hPa 0,0 l/m 0 min 0 min 0,0 UV-I 0 W/m 10,3 km/h (2 Bft)
07.12.2013 21:52 5,9 C 4,4 C 96 % 1023,6 hPa 0,0 l/m 0 min 0 min 0,0 UV-I 0 W/m 12,9 km/h (3 Bft)
07.12.2013 21:54 5,9 C 4,4 C 96 % 1023,6 hPa 0,0 l/m 0 min 0 min 0,0 UV-I 0 W/m 15,4 km/h (3 Bft)
07.12.2013 21:56 5,9 C 4,4 C 96 % 1023,6 hPa 0,0 l/m 0 min 0 min 0,0 UV-I 0 W/m 2,6 km/h (1 Bft)
07.12.2013 21:58 5,9 C 4,4 C 96 % 1023,6 hPa 0,0 l/m 0 min 0 min 0,0 UV-I 0 W/m 0,0 km/h (0 Bft)
07.12.2013 22:00 5,9 C 4,4 C 96 % 1023,9 hPa 0,0 l/m 0 min 0 min 0,0 UV-I 0 W/m 5,1 km/h (1 Bft)
07.12.2013 22:02 5,9 C 4,4 C 96 % 1023,9 hPa 0,0 l/m 0 min 0 min 0,0 UV-I 0 W/m 10,3 km/h (2 Bft)
07.12.2013 22:04 6,0 C 4,4 C 96 % 1023,9 hPa 0,0 l/m 0 min 0 min 0,0 UV-I 0 W/m 10,3 km/h (2 Bft)
07.12.2013 22:06 6,0 C 4,4 C 96 % 1023,8 hPa 0,0 l/m 0 min 0 min 0,0 UV-I 0 W/m 5,1 km/h (1 Bft)
07.12.2013 22:08 6,0 C 4,4 C 96 % 1023,8 hPa 0,0 l/m 0 min 0 min 0,0 UV-I 0 W/m 0,0 km/h (0 Bft)
07.12.2013 22:10 6,0 C 4,4 C 96 % 1023,9 hPa 0,0 l/m 0 min 0 min 0,0 UV-I 0 W/m 12,9 km/h (3 Bft)
07.12.2013 22:12 6,0 C 4,4 C 96 % 1023,9 hPa 0,0 l/m 0 min 0 min 0,0 UV-I 0 W/m 10,3 km/h (2 Bft)
07.12.2013 22:14 6,0 C 4,4 C 96 % 1023,9 hPa 0,0 l/m 0 min 0 min 0,0 UV-I 0 W/m 10,3 km/h (2 Bft)
07.12.2013 22:16 6,0 C 4,4 C 96 % 1024,1 hPa 0,0 l/m 0 min 0 min 0,0 UV-I 0 W/m 0,0 km/h (0 Bft)
07.12.2013 22:18 6,0 C 4,4 C 96 % 1024,1 hPa 0,0 l/m 0 min 0 min 0,0 UV-I 0 W/m 0,0 km/h (0 Bft)
07.12.2013 22:20 6,0 C 4,4 C 96 % 1024,1 hPa 0,0 l/m 0 min 0 min 0,0 UV-I 0 W/m 10,3 km/h (2 Bft)
07.12.2013 22:22 6,1 C 4,4 C 96 % 1024,1 hPa 0,0 l/m 0 min 0 min 0,0 UV-I 0 W/m 0,0 km/h (0 Bft)
07.12.2013 22:24 6,0 C 4,4 C 96 % 1024,1 hPa 0,0 l/m 0 min 0 min 0,0 UV-I 0 W/m 5,1 km/h (1 Bft)
07.12.2013 22:26 6,1 C 4,4 C 96 % 1024,0 hPa 0,0 l/m 0 min 0 min 0,0 UV-I 0 W/m 2,6 km/h (1 Bft)
07.12.2013 22:28 6,1 C 4,4 C 96 % 1024,0 hPa 0,0 l/m 0 min 0 min 0,0 UV-I 0 W/m 0,0 km/h (0 Bft)
07.12.2013 22:30 6,0 C 4,4 C 96 % 1024,0 hPa 0,0 l/m 0 min 0 min 0,0 UV-I 0 W/m 0,0 km/h (0 Bft)
07.12.2013 22:32 6,0 C 4,4 C 96 % 1024,1 hPa 0,0 l/m 0 min 0 min 0,0 UV-I 0 W/m 7,7 km/h (2 Bft)
07.12.2013 22:34 6,0 C 4,4 C 96 % 1024,2 hPa 0,0 l/m 0 min 0 min 0,0 UV-I 0 W/m 0,0 km/h (0 Bft)
07.12.2013 22:36 6,0 C 4,4 C 96 % 1024,3 hPa 0,0 l/m 0 min 0 min 0,0 UV-I 0 W/m 0,0 km/h (0 Bft)
07.12.2013 22:38 6,0 C 4,4 C 96 % 1024,2 hPa 0,0 l/m 0 min 0 min 0,0 UV-I 0 W/m 0,0 km/h (0 Bft)
07.12.2013 22:40 6,0 C 4,4 C 96 % 1024,2 hPa 0,0 l/m 0 min 0 min 0,0 UV-I 0 W/m 0,0 km/h (0 Bft)
07.12.2013 22:42 6,0 C 4,4 C 96 % 1024,2 hPa 0,0 l/m 0 min 0 min 0,0 UV-I 0 W/m 5,1 km/h (1 Bft)
07.12.2013 22:44 6,0 C 4,4 C 96 % 1024,2 hPa 0,0 l/m 0 min 0 min 0,0 UV-I 0 W/m 0,0 km/h (0 Bft)
07.12.2013 22:46 6,0 C 3,9 C 96 % 1024,2 hPa 0,0 l/m 0 min 0 min 0,0 UV-I 0 W/m 0,0 km/h (0 Bft)
07.12.2013 22:48 6,0 C 3,9 C 96 % 1024,2 hPa 0,0 l/m 0 min 0 min 0,0 UV-I 0 W/m 0,0 km/h (0 Bft)
07.12.2013 22:50 5,9 C 3,9 C 96 % 1024,2 hPa 0,0 l/m 0 min 0 min 0,0 UV-I 0 W/m 0,0 km/h (0 Bft)
07.12.2013 22:52 5,9 C 3,9 C 96 % 1024,2 hPa 0,0 l/m 0 min 0 min 0,0 UV-I 0 W/m 5,1 km/h (1 Bft)
07.12.2013 22:54 5,9 C 3,9 C 95 % 1024,3 hPa 0,0 l/m 0 min 0 min 0,0 UV-I 0 W/m 5,1 km/h (1 Bft)
07.12.2013 22:56 5,9 C 3,9 C 95 % 1024,2 hPa 0,0 l/m 0 min 0 min 0,0 UV-I 0 W/m 7,7 km/h (2 Bft)
07.12.2013 22:58 5,9 C 3,9 C 95 % 1024,2 hPa 0,0 l/m 0 min 0 min 0,0 UV-I 0 W/m 7,7 km/h (2 Bft)
07.12.2013 23:00 5,9 C 3,9 C 95 % 1024,2 hPa 0,0 l/m 0 min 0 min 0,0 UV-I 0 W/m 0,0 km/h (0 Bft)
07.12.2013 23:02 5,9 C 3,9 C 95 % 1024,2 hPa 0,0 l/m 0 min 0 min 0,0 UV-I 0 W/m 7,7 km/h (2 Bft)
07.12.2013 23:04 5,9 C 3,9 C 95 % 1024,2 hPa 0,0 l/m 0 min 0 min 0,0 UV-I 0 W/m 0,0 km/h (0 Bft)
07.12.2013 23:06 5,9 C 3,9 C 95 % 1024,2 hPa 0,0 l/m 0 min 0 min 0,0 UV-I 0 W/m 5,1 km/h (1 Bft)
07.12.2013 23:08 5,9 C 3,9 C 95 % 1024,2 hPa 0,0 l/m 0 min 0 min 0,0 UV-I 0 W/m 7,7 km/h (2 Bft)
07.12.2013 23:10 5,8 C 3,9 C 95 % 1024,2 hPa 0,0 l/m 0 min 0 min 0,0 UV-I 0 W/m 0,0 km/h (0 Bft)
07.12.2013 23:12 5,8 C 3,9 C 95 % 1024,2 hPa 0,0 l/m 0 min 0 min 0,0 UV-I 0 W/m 0,0 km/h (0 Bft)
07.12.2013 23:14 5,8 C 3,9 C 95 % 1024,2 hPa 0,0 l/m 0 min 0 min 0,0 UV-I 0 W/m 7,7 km/h (2 Bft)
07.12.2013 23:16 5,8 C 3,9 C 95 % 1024,1 hPa 0,0 l/m 0 min 0 min 0,0 UV-I 0 W/m 10,3 km/h (2 Bft)
07.12.2013 23:18 5,8 C 3,9 C 95 % 1024,1 hPa 0,0 l/m 0 min 0 min 0,0 UV-I 0 W/m 5,1 km/h (1 Bft)
07.12.2013 23:20 5,8 C 3,9 C 95 % 1024,2 hPa 0,0 l/m 0 min 0 min 0,0 UV-I 0 W/m 10,3 km/h (2 Bft)
07.12.2013 23:22 5,8 C 3,9 C 95 % 1024,1 hPa 0,0 l/m 0 min 0 min 0,0 UV-I 0 W/m 5,1 km/h (1 Bft)
07.12.2013 23:24 5,8 C 3,9 C 95 % 1024,1 hPa 0,0 l/m 0 min 0 min 0,0 UV-I 0 W/m 5,1 km/h (1 Bft)
07.12.2013 23:26 5,8 C 3,9 C 95 % 1024,1 hPa 0,0 l/m 0 min 0 min 0,0 UV-I 0 W/m 0,0 km/h (0 Bft)
07.12.2013 23:28 5,8 C 3,9 C 95 % 1024,2 hPa 0,0 l/m 0 min 0 min 0,0 UV-I 0 W/m 0,0 km/h (0 Bft)
07.12.2013 23:30 5,8 C 3,9 C 95 % 1024,2 hPa 0,0 l/m 0 min 0 min 0,0 UV-I 0 W/m 7,7 km/h (2 Bft)
07.12.2013 23:32 5,8 C 3,9 C 94 % 1024,1 hPa 0,0 l/m 0 min 0 min 0,0 UV-I 0 W/m 5,1 km/h (1 Bft)
07.12.2013 23:34 5,8 C 3,9 C 94 % 1024,1 hPa 0,0 l/m 0 min 0 min 0,0 UV-I 0 W/m 10,3 km/h (2 Bft)
07.12.2013 23:36 5,8 C 3,9 C 94 % 1024,1 hPa 0,0 l/m 0 min 0 min 0,0 UV-I 0 W/m 5,1 km/h (1 Bft)
07.12.2013 23:38 5,8 C 3,9 C 94 % 1024,1 hPa 0,0 l/m 0 min 0 min 0,0 UV-I 0 W/m 10,3 km/h (2 Bft)
07.12.2013 23:40 5,8 C 3,9 C 94 % 1024,2 hPa 0,0 l/m 0 min 0 min 0,0 UV-I 0 W/m 7,7 km/h (2 Bft)
07.12.2013 23:42 5,8 C 3,9 C 94 % 1024,2 hPa 0,0 l/m 0 min 0 min 0,0 UV-I 0 W/m 7,7 km/h (2 Bft)
07.12.2013 23:44 5,8 C 4,4 C 94 % 1024,2 hPa 0,0 l/m 0 min 0 min 0,0 UV-I 0 W/m 2,6 km/h (1 Bft)
07.12.2013 23:46 5,8 C 3,9 C 94 % 1024,2 hPa 0,0 l/m 0 min 0 min 0,0 UV-I 0 W/m 5,1 km/h (1 Bft)
07.12.2013 23:48 5,8 C 4,4 C 94 % 1024,2 hPa 0,0 l/m 0 min 0 min 0,0 UV-I 0 W/m 10,3 km/h (2 Bft)
07.12.2013 23:50 5,8 C 4,4 C 94 % 1024,2 hPa 0,0 l/m 0 min 0 min 0,0 UV-I 0 W/m 5,1 km/h (1 Bft)
07.12.2013 23:52 5,8 C 4,4 C 94 % 1024,2 hPa 0,0 l/m 0 min 0 min 0,0 UV-I 0 W/m 7,7 km/h (2 Bft)
07.12.2013 23:54 5,8 C 3,9 C 94 % 1024,2 hPa 0,0 l/m 0 min 0 min 0,0 UV-I 0 W/m 0,0 km/h (0 Bft)
07.12.2013 23:56 5,8 C 3,9 C 94 % 1024,2 hPa 0,0 l/m 0 min 0 min 0,0 UV-I 0 W/m 15,4 km/h (3 Bft)
07.12.2013 23:58 5,8 C 3,9 C 94 % 1024,3 hPa 0,0 l/m 0 min 0 min 0,0 UV-I 0 W/m 12,9 km/h (3 Bft)
_ Min-Zeit 01:14 01:18 06:05 15:16 - - - - - 01:04
Minimum _ 1,9 C 0,6 C 87 % 1023,2 hPa - - - - - 0,0 km/h (0 Bft)
_ Max-Zeit 15:52 14:10 13:12 08:56 18:35 00:00 08:36 00:00 13:24 14:14
Maximum _ 6,4 C 5,0 C 98 % 1026,0 hPa 0,4 l/m 0 min 2 min 0,0 UV-I 70 W/m 23,2 km/h
W (4 Bft)
Durchschnitt _ 4,2 C 2,9 C 94 % 1024,6 hPa #2,2 l/m #0 min. #2:40 h 0,0 UV-I 23 W/m 5,3 km/h (1 Bft)
© 2013 W. Hausmann